<?xml version="1.0" encoding="UTF-8" standalone="no" ?>
<gpx xmlns="http://www.topografix.com/GPX/1/1" xmlns:xsi="http://www.w3.org/2001/XMLSchema-instance" xsi:schemaLocation="http://www.topografix.com/GPX/1/1 http://www.topografix.com/GPX/1/1/gpx.xsd" version="1.1" creator="VisuGPX - https://www.visugpx.com">
  <metadata>
    <name>2019-05-23 Belmont</name>
  </metadata>
  <trk>
    <name><![CDATA[2019-05-23 Belmont]]></name>
    <trkseg>
      <trkpt lat="47.01017" lon="5.59469">
        <ele>206.25</ele>
        <time>2019-05-23T11:53:05Z</time>
      </trkpt>
      <trkpt lat="47.01028" lon="5.59491">
        <ele>208.17</ele>
        <time>2019-05-23T11:54:58Z</time>
      </trkpt>
      <trkpt lat="47.01035" lon="5.59515">
        <ele>208.56</ele>
        <time>2019-05-23T11:55:17Z</time>
      </trkpt>
      <trkpt lat="47.0105" lon="5.59532">
        <ele>209.26</ele>
        <time>2019-05-23T11:55:34Z</time>
      </trkpt>
      <trkpt lat="47.01069" lon="5.59525">
        <ele>208.96</ele>
        <time>2019-05-23T11:55:51Z</time>
      </trkpt>
      <trkpt lat="47.01087" lon="5.59519">
        <ele>208.26</ele>
        <time>2019-05-23T11:56:06Z</time>
      </trkpt>
      <trkpt lat="47.01105" lon="5.59512">
        <ele>208.28</ele>
        <time>2019-05-23T11:56:21Z</time>
      </trkpt>
      <trkpt lat="47.01124" lon="5.59506">
        <ele>208.26</ele>
        <time>2019-05-23T11:56:37Z</time>
      </trkpt>
      <trkpt lat="47.01143" lon="5.59501">
        <ele>209.28</ele>
        <time>2019-05-23T11:56:50Z</time>
      </trkpt>
      <trkpt lat="47.01161" lon="5.59496">
        <ele>208.96</ele>
        <time>2019-05-23T11:57:05Z</time>
      </trkpt>
      <trkpt lat="47.01178" lon="5.59488">
        <ele>207.54</ele>
        <time>2019-05-23T11:57:19Z</time>
      </trkpt>
      <trkpt lat="47.01196" lon="5.5948">
        <ele>209.34</ele>
        <time>2019-05-23T11:57:32Z</time>
      </trkpt>
      <trkpt lat="47.01214" lon="5.59476">
        <ele>208.26</ele>
        <time>2019-05-23T11:57:48Z</time>
      </trkpt>
      <trkpt lat="47.01232" lon="5.59466">
        <ele>208.02</ele>
        <time>2019-05-23T11:58:03Z</time>
      </trkpt>
      <trkpt lat="47.0125" lon="5.59458">
        <ele>206.28</ele>
        <time>2019-05-23T11:58:16Z</time>
      </trkpt>
      <trkpt lat="47.01268" lon="5.59452">
        <ele>206.26</ele>
        <time>2019-05-23T11:58:30Z</time>
      </trkpt>
      <trkpt lat="47.01286" lon="5.59444">
        <ele>207.23</ele>
        <time>2019-05-23T11:58:45Z</time>
      </trkpt>
      <trkpt lat="47.01303" lon="5.59436">
        <ele>207.17</ele>
        <time>2019-05-23T11:59:00Z</time>
      </trkpt>
      <trkpt lat="47.01316" lon="5.59417">
        <ele>206.65</ele>
        <time>2019-05-23T11:59:16Z</time>
      </trkpt>
      <trkpt lat="47.01313" lon="5.59391">
        <ele>206.35</ele>
        <time>2019-05-23T11:59:29Z</time>
      </trkpt>
      <trkpt lat="47.01306" lon="5.59364">
        <ele>199.59</ele>
        <time>2019-05-23T11:59:41Z</time>
      </trkpt>
      <trkpt lat="47.01302" lon="5.59337">
        <ele>199.17</ele>
        <time>2019-05-23T11:59:55Z</time>
      </trkpt>
      <trkpt lat="47.01301" lon="5.5931">
        <ele>202.22</ele>
        <time>2019-05-23T12:00:10Z</time>
      </trkpt>
      <trkpt lat="47.01301" lon="5.59282">
        <ele>204.25</ele>
        <time>2019-05-23T12:00:25Z</time>
      </trkpt>
      <trkpt lat="47.01299" lon="5.59254">
        <ele>204.34</ele>
        <time>2019-05-23T12:00:39Z</time>
      </trkpt>
      <trkpt lat="47.01296" lon="5.59226">
        <ele>206.26</ele>
        <time>2019-05-23T12:00:55Z</time>
      </trkpt>
      <trkpt lat="47.01292" lon="5.59198">
        <ele>205.25</ele>
        <time>2019-05-23T12:01:10Z</time>
      </trkpt>
      <trkpt lat="47.01285" lon="5.59173">
        <ele>205.96</ele>
        <time>2019-05-23T12:01:24Z</time>
      </trkpt>
      <trkpt lat="47.01276" lon="5.5915">
        <ele>206.28</ele>
        <time>2019-05-23T12:01:38Z</time>
      </trkpt>
      <trkpt lat="47.01264" lon="5.59129">
        <ele>207.96</ele>
        <time>2019-05-23T12:01:53Z</time>
      </trkpt>
      <trkpt lat="47.01253" lon="5.59106">
        <ele>208.26</ele>
        <time>2019-05-23T12:02:09Z</time>
      </trkpt>
      <trkpt lat="47.01244" lon="5.59082">
        <ele>208.26</ele>
        <time>2019-05-23T12:02:23Z</time>
      </trkpt>
      <trkpt lat="47.0124" lon="5.59055">
        <ele>208.55</ele>
        <time>2019-05-23T12:02:37Z</time>
      </trkpt>
      <trkpt lat="47.01242" lon="5.59029">
        <ele>208.26</ele>
        <time>2019-05-23T12:02:51Z</time>
      </trkpt>
      <trkpt lat="47.01243" lon="5.59001">
        <ele>204.65</ele>
        <time>2019-05-23T12:03:05Z</time>
      </trkpt>
      <trkpt lat="47.01245" lon="5.58974">
        <ele>206.16</ele>
        <time>2019-05-23T12:03:20Z</time>
      </trkpt>
      <trkpt lat="47.01247" lon="5.58947">
        <ele>205.24</ele>
        <time>2019-05-23T12:03:35Z</time>
      </trkpt>
      <trkpt lat="47.01248" lon="5.5892">
        <ele>204.26</ele>
        <time>2019-05-23T12:03:49Z</time>
      </trkpt>
      <trkpt lat="47.01247" lon="5.58893">
        <ele>205.25</ele>
        <time>2019-05-23T12:04:03Z</time>
      </trkpt>
      <trkpt lat="47.01245" lon="5.58867">
        <ele>205.56</ele>
        <time>2019-05-23T12:04:17Z</time>
      </trkpt>
      <trkpt lat="47.01241" lon="5.5884">
        <ele>205.35</ele>
        <time>2019-05-23T12:04:31Z</time>
      </trkpt>
      <trkpt lat="47.01238" lon="5.58812">
        <ele>206.17</ele>
        <time>2019-05-23T12:04:46Z</time>
      </trkpt>
      <trkpt lat="47.01236" lon="5.58785">
        <ele>206.28</ele>
        <time>2019-05-23T12:05:00Z</time>
      </trkpt>
      <trkpt lat="47.01231" lon="5.58759">
        <ele>206.17</ele>
        <time>2019-05-23T12:05:15Z</time>
      </trkpt>
      <trkpt lat="47.01227" lon="5.58732">
        <ele>206.96</ele>
        <time>2019-05-23T12:05:29Z</time>
      </trkpt>
      <trkpt lat="47.01226" lon="5.58704">
        <ele>205.56</ele>
        <time>2019-05-23T12:05:43Z</time>
      </trkpt>
      <trkpt lat="47.01228" lon="5.58677">
        <ele>204.47</ele>
        <time>2019-05-23T12:05:57Z</time>
      </trkpt>
      <trkpt lat="47.0123" lon="5.5865">
        <ele>203.26</ele>
        <time>2019-05-23T12:06:12Z</time>
      </trkpt>
      <trkpt lat="47.0123" lon="5.58623">
        <ele>204.26</ele>
        <time>2019-05-23T12:06:26Z</time>
      </trkpt>
      <trkpt lat="47.01231" lon="5.58595">
        <ele>204.26</ele>
        <time>2019-05-23T12:06:40Z</time>
      </trkpt>
      <trkpt lat="47.01231" lon="5.58569">
        <ele>204.26</ele>
        <time>2019-05-23T12:06:54Z</time>
      </trkpt>
      <trkpt lat="47.01228" lon="5.58542">
        <ele>204.26</ele>
        <time>2019-05-23T12:07:07Z</time>
      </trkpt>
      <trkpt lat="47.01225" lon="5.58516">
        <ele>205.25</ele>
        <time>2019-05-23T12:07:21Z</time>
      </trkpt>
      <trkpt lat="47.01221" lon="5.58489">
        <ele>204.17</ele>
        <time>2019-05-23T12:07:36Z</time>
      </trkpt>
      <trkpt lat="47.01216" lon="5.58462">
        <ele>205.32</ele>
        <time>2019-05-23T12:07:51Z</time>
      </trkpt>
      <trkpt lat="47.01213" lon="5.58435">
        <ele>206.17</ele>
        <time>2019-05-23T12:08:05Z</time>
      </trkpt>
      <trkpt lat="47.01209" lon="5.58409">
        <ele>204.48</ele>
        <time>2019-05-23T12:08:19Z</time>
      </trkpt>
      <trkpt lat="47.01205" lon="5.58382">
        <ele>205.25</ele>
        <time>2019-05-23T12:08:33Z</time>
      </trkpt>
      <trkpt lat="47.01203" lon="5.58354">
        <ele>205.26</ele>
        <time>2019-05-23T12:08:47Z</time>
      </trkpt>
      <trkpt lat="47.01202" lon="5.58328">
        <ele>206.26</ele>
        <time>2019-05-23T12:09:01Z</time>
      </trkpt>
      <trkpt lat="47.01198" lon="5.58302">
        <ele>206.23</ele>
        <time>2019-05-23T12:09:31Z</time>
      </trkpt>
      <trkpt lat="47.01196" lon="5.58276">
        <ele>206.26</ele>
        <time>2019-05-23T12:09:45Z</time>
      </trkpt>
      <trkpt lat="47.01194" lon="5.58247">
        <ele>205.26</ele>
        <time>2019-05-23T12:10:00Z</time>
      </trkpt>
      <trkpt lat="47.01187" lon="5.58221">
        <ele>207.23</ele>
        <time>2019-05-23T12:10:14Z</time>
      </trkpt>
      <trkpt lat="47.01184" lon="5.58194">
        <ele>209.25</ele>
        <time>2019-05-23T12:10:27Z</time>
      </trkpt>
      <trkpt lat="47.01185" lon="5.58168">
        <ele>206.56</ele>
        <time>2019-05-23T12:10:46Z</time>
      </trkpt>
      <trkpt lat="47.01198" lon="5.58186">
        <ele>207.26</ele>
        <time>2019-05-23T12:14:37Z</time>
      </trkpt>
      <trkpt lat="47.01215" lon="5.58197">
        <ele>207.25</ele>
        <time>2019-05-23T12:14:51Z</time>
      </trkpt>
      <trkpt lat="47.01231" lon="5.5821">
        <ele>206.26</ele>
        <time>2019-05-23T12:15:04Z</time>
      </trkpt>
      <trkpt lat="47.01247" lon="5.58226">
        <ele>205.28</ele>
        <time>2019-05-23T12:15:18Z</time>
      </trkpt>
      <trkpt lat="47.01261" lon="5.58242">
        <ele>205.26</ele>
        <time>2019-05-23T12:15:31Z</time>
      </trkpt>
      <trkpt lat="47.01275" lon="5.58258">
        <ele>205.32</ele>
        <time>2019-05-23T12:15:46Z</time>
      </trkpt>
      <trkpt lat="47.0129" lon="5.58274">
        <ele>206.05</ele>
        <time>2019-05-23T12:16:00Z</time>
      </trkpt>
      <trkpt lat="47.01305" lon="5.58291">
        <ele>205.26</ele>
        <time>2019-05-23T12:16:14Z</time>
      </trkpt>
      <trkpt lat="47.01321" lon="5.58306">
        <ele>204.26</ele>
        <time>2019-05-23T12:16:28Z</time>
      </trkpt>
      <trkpt lat="47.01339" lon="5.58318">
        <ele>205.26</ele>
        <time>2019-05-23T12:16:42Z</time>
      </trkpt>
      <trkpt lat="47.01356" lon="5.58325">
        <ele>204.35</ele>
        <time>2019-05-23T12:16:57Z</time>
      </trkpt>
      <trkpt lat="47.01375" lon="5.58329">
        <ele>205.19</ele>
        <time>2019-05-23T12:17:12Z</time>
      </trkpt>
      <trkpt lat="47.01393" lon="5.58335">
        <ele>205.26</ele>
        <time>2019-05-23T12:17:25Z</time>
      </trkpt>
      <trkpt lat="47.01412" lon="5.58341">
        <ele>204.56</ele>
        <time>2019-05-23T12:17:40Z</time>
      </trkpt>
      <trkpt lat="47.0143" lon="5.58349">
        <ele>205.33</ele>
        <time>2019-05-23T12:17:55Z</time>
      </trkpt>
      <trkpt lat="47.01448" lon="5.5836">
        <ele>206.26</ele>
        <time>2019-05-23T12:18:09Z</time>
      </trkpt>
      <trkpt lat="47.01465" lon="5.58369">
        <ele>207.26</ele>
        <time>2019-05-23T12:18:23Z</time>
      </trkpt>
      <trkpt lat="47.01483" lon="5.58378">
        <ele>207.26</ele>
        <time>2019-05-23T12:18:37Z</time>
      </trkpt>
      <trkpt lat="47.01501" lon="5.58387">
        <ele>207.17</ele>
        <time>2019-05-23T12:18:51Z</time>
      </trkpt>
      <trkpt lat="47.01519" lon="5.58394">
        <ele>207.26</ele>
        <time>2019-05-23T12:19:06Z</time>
      </trkpt>
      <trkpt lat="47.01537" lon="5.58394">
        <ele>207.17</ele>
        <time>2019-05-23T12:19:20Z</time>
      </trkpt>
      <trkpt lat="47.01554" lon="5.58383">
        <ele>207.19</ele>
        <time>2019-05-23T12:19:33Z</time>
      </trkpt>
      <trkpt lat="47.01567" lon="5.58362">
        <ele>206.26</ele>
        <time>2019-05-23T12:19:48Z</time>
      </trkpt>
      <trkpt lat="47.01576" lon="5.58339">
        <ele>206.25</ele>
        <time>2019-05-23T12:20:02Z</time>
      </trkpt>
      <trkpt lat="47.01585" lon="5.58314">
        <ele>206.95</ele>
        <time>2019-05-23T12:20:16Z</time>
      </trkpt>
      <trkpt lat="47.01595" lon="5.58291">
        <ele>206.49</ele>
        <time>2019-05-23T12:20:30Z</time>
      </trkpt>
      <trkpt lat="47.01606" lon="5.58269">
        <ele>206.26</ele>
        <time>2019-05-23T12:20:45Z</time>
      </trkpt>
      <trkpt lat="47.01616" lon="5.58245">
        <ele>207.23</ele>
        <time>2019-05-23T12:20:59Z</time>
      </trkpt>
      <trkpt lat="47.01629" lon="5.58225">
        <ele>205.96</ele>
        <time>2019-05-23T12:21:15Z</time>
      </trkpt>
      <trkpt lat="47.01648" lon="5.58224">
        <ele>208.26</ele>
        <time>2019-05-23T12:21:31Z</time>
      </trkpt>
      <trkpt lat="47.01666" lon="5.5823">
        <ele>210.16</ele>
        <time>2019-05-23T12:21:45Z</time>
      </trkpt>
      <trkpt lat="47.01683" lon="5.58243">
        <ele>210.26</ele>
        <time>2019-05-23T12:21:59Z</time>
      </trkpt>
      <trkpt lat="47.01699" lon="5.58257">
        <ele>212.26</ele>
        <time>2019-05-23T12:22:15Z</time>
      </trkpt>
      <trkpt lat="47.01716" lon="5.58271">
        <ele>212.25</ele>
        <time>2019-05-23T12:22:29Z</time>
      </trkpt>
      <trkpt lat="47.01718" lon="5.58299">
        <ele>212.96</ele>
        <time>2019-05-23T12:22:48Z</time>
      </trkpt>
      <trkpt lat="47.01721" lon="5.58327">
        <ele>212.55</ele>
        <time>2019-05-23T12:23:04Z</time>
      </trkpt>
      <trkpt lat="47.01723" lon="5.58353">
        <ele>215.28</ele>
        <time>2019-05-23T12:23:19Z</time>
      </trkpt>
      <trkpt lat="47.01723" lon="5.5838">
        <ele>215.29</ele>
        <time>2019-05-23T12:23:33Z</time>
      </trkpt>
      <trkpt lat="47.01722" lon="5.58407">
        <ele>210.27</ele>
        <time>2019-05-23T12:23:48Z</time>
      </trkpt>
      <trkpt lat="47.01734" lon="5.58429">
        <ele>212.08</ele>
        <time>2019-05-23T12:24:15Z</time>
      </trkpt>
      <trkpt lat="47.01751" lon="5.58438">
        <ele>213.93</ele>
        <time>2019-05-23T12:24:30Z</time>
      </trkpt>
      <trkpt lat="47.01767" lon="5.58449">
        <ele>214.26</ele>
        <time>2019-05-23T12:24:43Z</time>
      </trkpt>
      <trkpt lat="47.01785" lon="5.5846">
        <ele>216.96</ele>
        <time>2019-05-23T12:24:58Z</time>
      </trkpt>
      <trkpt lat="47.01802" lon="5.58471">
        <ele>219.17</ele>
        <time>2019-05-23T12:25:13Z</time>
      </trkpt>
      <trkpt lat="47.01819" lon="5.58481">
        <ele>220.16</ele>
        <time>2019-05-23T12:25:27Z</time>
      </trkpt>
      <trkpt lat="47.01837" lon="5.58488">
        <ele>222.26</ele>
        <time>2019-05-23T12:25:43Z</time>
      </trkpt>
      <trkpt lat="47.01855" lon="5.58495">
        <ele>219.47</ele>
        <time>2019-05-23T12:25:57Z</time>
      </trkpt>
      <trkpt lat="47.01872" lon="5.58505">
        <ele>220.23</ele>
        <time>2019-05-23T12:26:13Z</time>
      </trkpt>
      <trkpt lat="47.0189" lon="5.58516">
        <ele>223.96</ele>
        <time>2019-05-23T12:26:28Z</time>
      </trkpt>
      <trkpt lat="47.01907" lon="5.58527">
        <ele>226.86</ele>
        <time>2019-05-23T12:26:44Z</time>
      </trkpt>
      <trkpt lat="47.01924" lon="5.58536">
        <ele>229.17</ele>
        <time>2019-05-23T12:26:57Z</time>
      </trkpt>
      <trkpt lat="47.01942" lon="5.58546">
        <ele>234.16</ele>
        <time>2019-05-23T12:27:13Z</time>
      </trkpt>
      <trkpt lat="47.01959" lon="5.58561">
        <ele>235.26</ele>
        <time>2019-05-23T12:27:29Z</time>
      </trkpt>
      <trkpt lat="47.01976" lon="5.58567">
        <ele>233.96</ele>
        <time>2019-05-23T12:27:43Z</time>
      </trkpt>
      <trkpt lat="47.01993" lon="5.58579">
        <ele>235.25</ele>
        <time>2019-05-23T12:27:57Z</time>
      </trkpt>
      <trkpt lat="47.02012" lon="5.58585">
        <ele>235.35</ele>
        <time>2019-05-23T12:28:10Z</time>
      </trkpt>
      <trkpt lat="47.0203" lon="5.58582">
        <ele>230.35</ele>
        <time>2019-05-23T12:28:21Z</time>
      </trkpt>
      <trkpt lat="47.02048" lon="5.5859">
        <ele>232.25</ele>
        <time>2019-05-23T12:28:38Z</time>
      </trkpt>
      <trkpt lat="47.02066" lon="5.58588">
        <ele>227.35</ele>
        <time>2019-05-23T12:28:52Z</time>
      </trkpt>
      <trkpt lat="47.02084" lon="5.58598">
        <ele>230.47</ele>
        <time>2019-05-23T12:29:06Z</time>
      </trkpt>
      <trkpt lat="47.02102" lon="5.58599">
        <ele>230.05</ele>
        <time>2019-05-23T12:29:21Z</time>
      </trkpt>
      <trkpt lat="47.0212" lon="5.58602">
        <ele>230.26</ele>
        <time>2019-05-23T12:29:34Z</time>
      </trkpt>
      <trkpt lat="47.0214" lon="5.58603">
        <ele>230.56</ele>
        <time>2019-05-23T12:29:48Z</time>
      </trkpt>
      <trkpt lat="47.02158" lon="5.58608">
        <ele>229.55</ele>
        <time>2019-05-23T12:30:01Z</time>
      </trkpt>
      <trkpt lat="47.02175" lon="5.58622">
        <ele>231.03</ele>
        <time>2019-05-23T12:30:16Z</time>
      </trkpt>
      <trkpt lat="47.02187" lon="5.58642">
        <ele>229.26</ele>
        <time>2019-05-23T12:30:29Z</time>
      </trkpt>
      <trkpt lat="47.02198" lon="5.58666">
        <ele>230.18</ele>
        <time>2019-05-23T12:30:44Z</time>
      </trkpt>
      <trkpt lat="47.02205" lon="5.58691">
        <ele>231.19</ele>
        <time>2019-05-23T12:30:57Z</time>
      </trkpt>
      <trkpt lat="47.02214" lon="5.58715">
        <ele>230.26</ele>
        <time>2019-05-23T12:31:11Z</time>
      </trkpt>
      <trkpt lat="47.02215" lon="5.58743">
        <ele>228.35</ele>
        <time>2019-05-23T12:31:26Z</time>
      </trkpt>
      <trkpt lat="47.02221" lon="5.58768">
        <ele>231.93</ele>
        <time>2019-05-23T12:31:39Z</time>
      </trkpt>
      <trkpt lat="47.02227" lon="5.58795">
        <ele>235.26</ele>
        <time>2019-05-23T12:31:54Z</time>
      </trkpt>
      <trkpt lat="47.02233" lon="5.5882">
        <ele>240.14</ele>
        <time>2019-05-23T12:32:09Z</time>
      </trkpt>
      <trkpt lat="47.02238" lon="5.58846">
        <ele>243.95</ele>
        <time>2019-05-23T12:32:23Z</time>
      </trkpt>
      <trkpt lat="47.02246" lon="5.58872">
        <ele>244.28</ele>
        <time>2019-05-23T12:32:37Z</time>
      </trkpt>
      <trkpt lat="47.02252" lon="5.58897">
        <ele>242.57</ele>
        <time>2019-05-23T12:32:50Z</time>
      </trkpt>
      <trkpt lat="47.02258" lon="5.58922">
        <ele>241.28</ele>
        <time>2019-05-23T12:33:04Z</time>
      </trkpt>
      <trkpt lat="47.02264" lon="5.58949">
        <ele>240.56</ele>
        <time>2019-05-23T12:33:18Z</time>
      </trkpt>
      <trkpt lat="47.02271" lon="5.58975">
        <ele>241.25</ele>
        <time>2019-05-23T12:33:32Z</time>
      </trkpt>
      <trkpt lat="47.02278" lon="5.59">
        <ele>240.23</ele>
        <time>2019-05-23T12:33:45Z</time>
      </trkpt>
      <trkpt lat="47.02291" lon="5.59021">
        <ele>238.29</ele>
        <time>2019-05-23T12:33:58Z</time>
      </trkpt>
      <trkpt lat="47.023" lon="5.59044">
        <ele>237.26</ele>
        <time>2019-05-23T12:34:12Z</time>
      </trkpt>
      <trkpt lat="47.02309" lon="5.59069">
        <ele>236.48</ele>
        <time>2019-05-23T12:34:26Z</time>
      </trkpt>
      <trkpt lat="47.02317" lon="5.59092">
        <ele>233.35</ele>
        <time>2019-05-23T12:34:40Z</time>
      </trkpt>
      <trkpt lat="47.02325" lon="5.59118">
        <ele>232.28</ele>
        <time>2019-05-23T12:34:54Z</time>
      </trkpt>
      <trkpt lat="47.02341" lon="5.59106">
        <ele>232.56</ele>
        <time>2019-05-23T12:35:15Z</time>
      </trkpt>
      <trkpt lat="47.02358" lon="5.59096">
        <ele>236.17</ele>
        <time>2019-05-23T12:35:33Z</time>
      </trkpt>
      <trkpt lat="47.02377" lon="5.59089">
        <ele>237.95</ele>
        <time>2019-05-23T12:35:48Z</time>
      </trkpt>
      <trkpt lat="47.02394" lon="5.59077">
        <ele>239.87</ele>
        <time>2019-05-23T12:36:02Z</time>
      </trkpt>
      <trkpt lat="47.02408" lon="5.59059">
        <ele>244.26</ele>
        <time>2019-05-23T12:37:18Z</time>
      </trkpt>
      <trkpt lat="47.02426" lon="5.59054">
        <ele>246.26</ele>
        <time>2019-05-23T12:38:51Z</time>
      </trkpt>
      <trkpt lat="47.02444" lon="5.59045">
        <ele>245.25</ele>
        <time>2019-05-23T12:39:16Z</time>
      </trkpt>
      <trkpt lat="47.02462" lon="5.59036">
        <ele>246.14</ele>
        <time>2019-05-23T12:39:31Z</time>
      </trkpt>
      <trkpt lat="47.02479" lon="5.59027">
        <ele>245.25</ele>
        <time>2019-05-23T12:39:47Z</time>
      </trkpt>
      <trkpt lat="47.02496" lon="5.59014">
        <ele>241.58</ele>
        <time>2019-05-23T12:40:04Z</time>
      </trkpt>
      <trkpt lat="47.02512" lon="5.59003">
        <ele>243.35</ele>
        <time>2019-05-23T12:40:23Z</time>
      </trkpt>
      <trkpt lat="47.0253" lon="5.58993">
        <ele>239.27</ele>
        <time>2019-05-23T12:40:40Z</time>
      </trkpt>
      <trkpt lat="47.02543" lon="5.59012">
        <ele>242.34</ele>
        <time>2019-05-23T12:41:04Z</time>
      </trkpt>
      <trkpt lat="47.02548" lon="5.59038">
        <ele>241.26</ele>
        <time>2019-05-23T12:41:19Z</time>
      </trkpt>
      <trkpt lat="47.02552" lon="5.59065">
        <ele>242.56</ele>
        <time>2019-05-23T12:41:40Z</time>
      </trkpt>
      <trkpt lat="47.0256" lon="5.59089">
        <ele>245.17</ele>
        <time>2019-05-23T12:41:55Z</time>
      </trkpt>
      <trkpt lat="47.02578" lon="5.59089">
        <ele>242.26</ele>
        <time>2019-05-23T12:42:21Z</time>
      </trkpt>
      <trkpt lat="47.02596" lon="5.59081">
        <ele>243.35</ele>
        <time>2019-05-23T12:42:40Z</time>
      </trkpt>
      <trkpt lat="47.02611" lon="5.59066">
        <ele>241.27</ele>
        <time>2019-05-23T12:42:52Z</time>
      </trkpt>
      <trkpt lat="47.0263" lon="5.59064">
        <ele>238.27</ele>
        <time>2019-05-23T12:43:08Z</time>
      </trkpt>
      <trkpt lat="47.02643" lon="5.59084">
        <ele>240.33</ele>
        <time>2019-05-23T12:43:35Z</time>
      </trkpt>
      <trkpt lat="47.02645" lon="5.5911">
        <ele>243.14</ele>
        <time>2019-05-23T12:43:57Z</time>
      </trkpt>
      <trkpt lat="47.02649" lon="5.59137">
        <ele>246.23</ele>
        <time>2019-05-23T12:44:12Z</time>
      </trkpt>
      <trkpt lat="47.02658" lon="5.59161">
        <ele>245.34</ele>
        <time>2019-05-23T12:44:27Z</time>
      </trkpt>
      <trkpt lat="47.02665" lon="5.59186">
        <ele>247.25</ele>
        <time>2019-05-23T12:44:42Z</time>
      </trkpt>
      <trkpt lat="47.02673" lon="5.5921">
        <ele>246.26</ele>
        <time>2019-05-23T12:44:57Z</time>
      </trkpt>
      <trkpt lat="47.02676" lon="5.59238">
        <ele>242.86</ele>
        <time>2019-05-23T12:45:14Z</time>
      </trkpt>
      <trkpt lat="47.02681" lon="5.59264">
        <ele>242.32</ele>
        <time>2019-05-23T12:45:31Z</time>
      </trkpt>
      <trkpt lat="47.0269" lon="5.5929">
        <ele>242.93</ele>
        <time>2019-05-23T12:45:52Z</time>
      </trkpt>
      <trkpt lat="47.02696" lon="5.59316">
        <ele>243.96</ele>
        <time>2019-05-23T12:46:05Z</time>
      </trkpt>
      <trkpt lat="47.02699" lon="5.59343">
        <ele>243.17</ele>
        <time>2019-05-23T12:46:22Z</time>
      </trkpt>
      <trkpt lat="47.02707" lon="5.59367">
        <ele>243.28</ele>
        <time>2019-05-23T12:46:37Z</time>
      </trkpt>
      <trkpt lat="47.0271" lon="5.59394">
        <ele>243.95</ele>
        <time>2019-05-23T12:46:55Z</time>
      </trkpt>
      <trkpt lat="47.0272" lon="5.59419">
        <ele>243.59</ele>
        <time>2019-05-23T12:47:23Z</time>
      </trkpt>
      <trkpt lat="47.02723" lon="5.59446">
        <ele>242.38</ele>
        <time>2019-05-23T12:47:38Z</time>
      </trkpt>
      <trkpt lat="47.02732" lon="5.59471">
        <ele>244.22</ele>
        <time>2019-05-23T12:47:56Z</time>
      </trkpt>
      <trkpt lat="47.02738" lon="5.59497">
        <ele>248.23</ele>
        <time>2019-05-23T12:48:12Z</time>
      </trkpt>
      <trkpt lat="47.0275" lon="5.59518">
        <ele>248.98</ele>
        <time>2019-05-23T12:48:27Z</time>
      </trkpt>
      <trkpt lat="47.02747" lon="5.59545">
        <ele>249.26</ele>
        <time>2019-05-23T12:48:42Z</time>
      </trkpt>
      <trkpt lat="47.02752" lon="5.5957">
        <ele>251.25</ele>
        <time>2019-05-23T12:48:58Z</time>
      </trkpt>
      <trkpt lat="47.02758" lon="5.59597">
        <ele>252.23</ele>
        <time>2019-05-23T12:49:15Z</time>
      </trkpt>
      <trkpt lat="47.02765" lon="5.59622">
        <ele>256.22</ele>
        <time>2019-05-23T12:49:31Z</time>
      </trkpt>
      <trkpt lat="47.02773" lon="5.59646">
        <ele>256.26</ele>
        <time>2019-05-23T12:49:46Z</time>
      </trkpt>
      <trkpt lat="47.02779" lon="5.59671">
        <ele>259.43</ele>
        <time>2019-05-23T12:50:02Z</time>
      </trkpt>
      <trkpt lat="47.02783" lon="5.59699">
        <ele>257.54</ele>
        <time>2019-05-23T12:50:20Z</time>
      </trkpt>
      <trkpt lat="47.0279" lon="5.59724">
        <ele>258.32</ele>
        <time>2019-05-23T12:50:38Z</time>
      </trkpt>
      <trkpt lat="47.02801" lon="5.59746">
        <ele>251.26</ele>
        <time>2019-05-23T12:50:51Z</time>
      </trkpt>
      <trkpt lat="47.02807" lon="5.59772">
        <ele>250.26</ele>
        <time>2019-05-23T12:51:09Z</time>
      </trkpt>
      <trkpt lat="47.02813" lon="5.59797">
        <ele>250.05</ele>
        <time>2019-05-23T12:51:24Z</time>
      </trkpt>
      <trkpt lat="47.02817" lon="5.59824">
        <ele>249.35</ele>
        <time>2019-05-23T12:51:41Z</time>
      </trkpt>
      <trkpt lat="47.02821" lon="5.5985">
        <ele>249.96</ele>
        <time>2019-05-23T12:51:56Z</time>
      </trkpt>
      <trkpt lat="47.02827" lon="5.59876">
        <ele>250.35</ele>
        <time>2019-05-23T12:52:09Z</time>
      </trkpt>
      <trkpt lat="47.02832" lon="5.59901">
        <ele>249.35</ele>
        <time>2019-05-23T12:52:27Z</time>
      </trkpt>
      <trkpt lat="47.02841" lon="5.59925">
        <ele>246.57</ele>
        <time>2019-05-23T12:52:40Z</time>
      </trkpt>
      <trkpt lat="47.02848" lon="5.59951">
        <ele>245.27</ele>
        <time>2019-05-23T12:53:10Z</time>
      </trkpt>
      <trkpt lat="47.02854" lon="5.59977">
        <ele>246.25</ele>
        <time>2019-05-23T12:53:24Z</time>
      </trkpt>
      <trkpt lat="47.02861" lon="5.60003">
        <ele>247.17</ele>
        <time>2019-05-23T12:53:37Z</time>
      </trkpt>
      <trkpt lat="47.02864" lon="5.60029">
        <ele>247.26</ele>
        <time>2019-05-23T12:53:52Z</time>
      </trkpt>
      <trkpt lat="47.0287" lon="5.60055">
        <ele>245.35</ele>
        <time>2019-05-23T12:54:08Z</time>
      </trkpt>
      <trkpt lat="47.02879" lon="5.60079">
        <ele>246.04</ele>
        <time>2019-05-23T12:54:24Z</time>
      </trkpt>
      <trkpt lat="47.02887" lon="5.60103">
        <ele>246.26</ele>
        <time>2019-05-23T12:54:39Z</time>
      </trkpt>
      <trkpt lat="47.02902" lon="5.60123">
        <ele>241.25</ele>
        <time>2019-05-23T12:54:59Z</time>
      </trkpt>
      <trkpt lat="47.02919" lon="5.60112">
        <ele>236.86</ele>
        <time>2019-05-23T12:55:15Z</time>
      </trkpt>
      <trkpt lat="47.02935" lon="5.60098">
        <ele>240.19</ele>
        <time>2019-05-23T12:55:41Z</time>
      </trkpt>
      <trkpt lat="47.02953" lon="5.60092">
        <ele>245.02</ele>
        <time>2019-05-23T12:56:03Z</time>
      </trkpt>
      <trkpt lat="47.0297" lon="5.60083">
        <ele>244.34</ele>
        <time>2019-05-23T12:56:18Z</time>
      </trkpt>
      <trkpt lat="47.02988" lon="5.60074">
        <ele>244.28</ele>
        <time>2019-05-23T12:56:33Z</time>
      </trkpt>
      <trkpt lat="47.03001" lon="5.60054">
        <ele>244.96</ele>
        <time>2019-05-23T12:56:45Z</time>
      </trkpt>
      <trkpt lat="47.03018" lon="5.60045">
        <ele>246.56</ele>
        <time>2019-05-23T12:57:01Z</time>
      </trkpt>
      <trkpt lat="47.03037" lon="5.60045">
        <ele>243.56</ele>
        <time>2019-05-23T12:57:18Z</time>
      </trkpt>
      <trkpt lat="47.03054" lon="5.60035">
        <ele>244.26</ele>
        <time>2019-05-23T12:57:31Z</time>
      </trkpt>
      <trkpt lat="47.03073" lon="5.60025">
        <ele>245.28</ele>
        <time>2019-05-23T12:57:46Z</time>
      </trkpt>
      <trkpt lat="47.03091" lon="5.60017">
        <ele>244.26</ele>
        <time>2019-05-23T12:58:02Z</time>
      </trkpt>
      <trkpt lat="47.03109" lon="5.6001">
        <ele>245.34</ele>
        <time>2019-05-23T12:58:18Z</time>
      </trkpt>
      <trkpt lat="47.03127" lon="5.60003">
        <ele>243.56</ele>
        <time>2019-05-23T12:58:33Z</time>
      </trkpt>
      <trkpt lat="47.03143" lon="5.59992">
        <ele>243.23</ele>
        <time>2019-05-23T12:58:49Z</time>
      </trkpt>
      <trkpt lat="47.03162" lon="5.59986">
        <ele>247.25</ele>
        <time>2019-05-23T13:04:28Z</time>
      </trkpt>
      <trkpt lat="47.0318" lon="5.59979">
        <ele>251.26</ele>
        <time>2019-05-23T13:04:46Z</time>
      </trkpt>
      <trkpt lat="47.03196" lon="5.59965">
        <ele>250.28</ele>
        <time>2019-05-23T13:05:01Z</time>
      </trkpt>
      <trkpt lat="47.03214" lon="5.59954">
        <ele>250.23</ele>
        <time>2019-05-23T13:05:15Z</time>
      </trkpt>
      <trkpt lat="47.0323" lon="5.59943">
        <ele>251.04</ele>
        <time>2019-05-23T13:05:28Z</time>
      </trkpt>
      <trkpt lat="47.03248" lon="5.59935">
        <ele>253.23</ele>
        <time>2019-05-23T13:05:42Z</time>
      </trkpt>
      <trkpt lat="47.03265" lon="5.59924">
        <ele>252.25</ele>
        <time>2019-05-23T13:05:58Z</time>
      </trkpt>
      <trkpt lat="47.03281" lon="5.59911">
        <ele>248.57</ele>
        <time>2019-05-23T13:06:13Z</time>
      </trkpt>
      <trkpt lat="47.03299" lon="5.59906">
        <ele>250.96</ele>
        <time>2019-05-23T13:06:28Z</time>
      </trkpt>
      <trkpt lat="47.03316" lon="5.59896">
        <ele>251.26</ele>
        <time>2019-05-23T13:06:41Z</time>
      </trkpt>
      <trkpt lat="47.03334" lon="5.59885">
        <ele>252.35</ele>
        <time>2019-05-23T13:06:56Z</time>
      </trkpt>
      <trkpt lat="47.03351" lon="5.59876">
        <ele>248.08</ele>
        <time>2019-05-23T13:07:10Z</time>
      </trkpt>
      <trkpt lat="47.03368" lon="5.59864">
        <ele>248.96</ele>
        <time>2019-05-23T13:07:24Z</time>
      </trkpt>
      <trkpt lat="47.03386" lon="5.59855">
        <ele>248.05</ele>
        <time>2019-05-23T13:07:39Z</time>
      </trkpt>
      <trkpt lat="47.03404" lon="5.59845">
        <ele>246.35</ele>
        <time>2019-05-23T13:07:55Z</time>
      </trkpt>
      <trkpt lat="47.03421" lon="5.59838">
        <ele>245.29</ele>
        <time>2019-05-23T13:08:10Z</time>
      </trkpt>
      <trkpt lat="47.03439" lon="5.5983">
        <ele>246.17</ele>
        <time>2019-05-23T13:08:22Z</time>
      </trkpt>
      <trkpt lat="47.03456" lon="5.59818">
        <ele>248.96</ele>
        <time>2019-05-23T13:08:36Z</time>
      </trkpt>
      <trkpt lat="47.03473" lon="5.59807">
        <ele>250.46</ele>
        <time>2019-05-23T13:08:51Z</time>
      </trkpt>
      <trkpt lat="47.03489" lon="5.59796">
        <ele>252.17</ele>
        <time>2019-05-23T13:09:05Z</time>
      </trkpt>
      <trkpt lat="47.03507" lon="5.59791">
        <ele>253.23</ele>
        <time>2019-05-23T13:09:17Z</time>
      </trkpt>
      <trkpt lat="47.03525" lon="5.59779">
        <ele>251.28</ele>
        <time>2019-05-23T13:09:34Z</time>
      </trkpt>
      <trkpt lat="47.03543" lon="5.5977">
        <ele>249.96</ele>
        <time>2019-05-23T13:09:47Z</time>
      </trkpt>
      <trkpt lat="47.03562" lon="5.59765">
        <ele>251.26</ele>
        <time>2019-05-23T13:10:05Z</time>
      </trkpt>
      <trkpt lat="47.03579" lon="5.59756">
        <ele>249.29</ele>
        <time>2019-05-23T13:10:18Z</time>
      </trkpt>
      <trkpt lat="47.03596" lon="5.59744">
        <ele>247.27</ele>
        <time>2019-05-23T13:10:31Z</time>
      </trkpt>
      <trkpt lat="47.03614" lon="5.59738">
        <ele>247.25</ele>
        <time>2019-05-23T13:10:44Z</time>
      </trkpt>
      <trkpt lat="47.03632" lon="5.59728">
        <ele>248.35</ele>
        <time>2019-05-23T13:10:59Z</time>
      </trkpt>
      <trkpt lat="47.03648" lon="5.59716">
        <ele>246.96</ele>
        <time>2019-05-23T13:11:13Z</time>
      </trkpt>
      <trkpt lat="47.03666" lon="5.59708">
        <ele>245.26</ele>
        <time>2019-05-23T13:11:27Z</time>
      </trkpt>
      <trkpt lat="47.03683" lon="5.597">
        <ele>246.26</ele>
        <time>2019-05-23T13:11:43Z</time>
      </trkpt>
      <trkpt lat="47.03701" lon="5.59692">
        <ele>248.25</ele>
        <time>2019-05-23T13:11:56Z</time>
      </trkpt>
      <trkpt lat="47.03718" lon="5.59682">
        <ele>247.26</ele>
        <time>2019-05-23T13:12:10Z</time>
      </trkpt>
      <trkpt lat="47.03735" lon="5.5967">
        <ele>246.56</ele>
        <time>2019-05-23T13:12:24Z</time>
      </trkpt>
      <trkpt lat="47.03753" lon="5.59664">
        <ele>247.26</ele>
        <time>2019-05-23T13:12:39Z</time>
      </trkpt>
      <trkpt lat="47.0377" lon="5.59653">
        <ele>247.23</ele>
        <time>2019-05-23T13:12:56Z</time>
      </trkpt>
      <trkpt lat="47.03789" lon="5.59647">
        <ele>247.27</ele>
        <time>2019-05-23T13:13:10Z</time>
      </trkpt>
      <trkpt lat="47.03806" lon="5.59639">
        <ele>249.32</ele>
        <time>2019-05-23T13:13:25Z</time>
      </trkpt>
      <trkpt lat="47.03823" lon="5.59631">
        <ele>249.26</ele>
        <time>2019-05-23T13:13:40Z</time>
      </trkpt>
      <trkpt lat="47.0384" lon="5.59624">
        <ele>248.17</ele>
        <time>2019-05-23T13:13:54Z</time>
      </trkpt>
      <trkpt lat="47.03857" lon="5.59614">
        <ele>250.17</ele>
        <time>2019-05-23T13:14:09Z</time>
      </trkpt>
      <trkpt lat="47.03871" lon="5.59596">
        <ele>249.27</ele>
        <time>2019-05-23T13:14:24Z</time>
      </trkpt>
      <trkpt lat="47.0389" lon="5.5959">
        <ele>250.47</ele>
        <time>2019-05-23T13:14:38Z</time>
      </trkpt>
      <trkpt lat="47.03907" lon="5.59582">
        <ele>251.32</ele>
        <time>2019-05-23T13:14:54Z</time>
      </trkpt>
      <trkpt lat="47.03926" lon="5.59576">
        <ele>250.97</ele>
        <time>2019-05-23T13:15:24Z</time>
      </trkpt>
      <trkpt lat="47.03944" lon="5.59573">
        <ele>254.19</ele>
        <time>2019-05-23T13:15:40Z</time>
      </trkpt>
      <trkpt lat="47.03962" lon="5.59563">
        <ele>254.27</ele>
        <time>2019-05-23T13:15:56Z</time>
      </trkpt>
      <trkpt lat="47.0398" lon="5.59552">
        <ele>254.94</ele>
        <time>2019-05-23T13:16:07Z</time>
      </trkpt>
      <trkpt lat="47.03996" lon="5.59539">
        <ele>253.57</ele>
        <time>2019-05-23T13:16:20Z</time>
      </trkpt>
      <trkpt lat="47.04013" lon="5.59528">
        <ele>251.27</ele>
        <time>2019-05-23T13:16:34Z</time>
      </trkpt>
      <trkpt lat="47.0403" lon="5.59518">
        <ele>249.35</ele>
        <time>2019-05-23T13:16:48Z</time>
      </trkpt>
      <trkpt lat="47.04047" lon="5.5951">
        <ele>249.26</ele>
        <time>2019-05-23T13:17:01Z</time>
      </trkpt>
      <trkpt lat="47.04064" lon="5.59499">
        <ele>247.26</ele>
        <time>2019-05-23T13:17:15Z</time>
      </trkpt>
      <trkpt lat="47.04082" lon="5.59488">
        <ele>245.26</ele>
        <time>2019-05-23T13:17:30Z</time>
      </trkpt>
      <trkpt lat="47.04099" lon="5.59476">
        <ele>244.35</ele>
        <time>2019-05-23T13:17:44Z</time>
      </trkpt>
      <trkpt lat="47.04117" lon="5.59469">
        <ele>243.06</ele>
        <time>2019-05-23T13:17:58Z</time>
      </trkpt>
      <trkpt lat="47.04134" lon="5.59458">
        <ele>244.26</ele>
        <time>2019-05-23T13:18:12Z</time>
      </trkpt>
      <trkpt lat="47.04152" lon="5.5945">
        <ele>243.26</ele>
        <time>2019-05-23T13:18:27Z</time>
      </trkpt>
      <trkpt lat="47.04167" lon="5.59436">
        <ele>243.26</ele>
        <time>2019-05-23T13:18:41Z</time>
      </trkpt>
      <trkpt lat="47.04185" lon="5.59429">
        <ele>244.23</ele>
        <time>2019-05-23T13:18:57Z</time>
      </trkpt>
      <trkpt lat="47.04202" lon="5.5942">
        <ele>243.18</ele>
        <time>2019-05-23T13:19:13Z</time>
      </trkpt>
      <trkpt lat="47.0422" lon="5.59412">
        <ele>246.92</ele>
        <time>2019-05-23T13:19:27Z</time>
      </trkpt>
      <trkpt lat="47.04237" lon="5.59403">
        <ele>248.26</ele>
        <time>2019-05-23T13:19:42Z</time>
      </trkpt>
      <trkpt lat="47.04256" lon="5.59394">
        <ele>248.26</ele>
        <time>2019-05-23T13:19:56Z</time>
      </trkpt>
      <trkpt lat="47.04273" lon="5.59382">
        <ele>248.25</ele>
        <time>2019-05-23T13:20:12Z</time>
      </trkpt>
      <trkpt lat="47.04291" lon="5.59374">
        <ele>245.28</ele>
        <time>2019-05-23T13:20:26Z</time>
      </trkpt>
      <trkpt lat="47.04308" lon="5.59362">
        <ele>245.26</ele>
        <time>2019-05-23T13:20:40Z</time>
      </trkpt>
      <trkpt lat="47.04326" lon="5.59358">
        <ele>246.96</ele>
        <time>2019-05-23T13:20:54Z</time>
      </trkpt>
      <trkpt lat="47.04344" lon="5.59346">
        <ele>244.26</ele>
        <time>2019-05-23T13:21:07Z</time>
      </trkpt>
      <trkpt lat="47.0436" lon="5.59334">
        <ele>245.96</ele>
        <time>2019-05-23T13:21:26Z</time>
      </trkpt>
      <trkpt lat="47.04378" lon="5.59329">
        <ele>248.25</ele>
        <time>2019-05-23T13:21:41Z</time>
      </trkpt>
      <trkpt lat="47.04394" lon="5.59316">
        <ele>249.26</ele>
        <time>2019-05-23T13:21:54Z</time>
      </trkpt>
      <trkpt lat="47.04413" lon="5.59308">
        <ele>247.96</ele>
        <time>2019-05-23T13:22:08Z</time>
      </trkpt>
      <trkpt lat="47.04431" lon="5.59299">
        <ele>248.34</ele>
        <time>2019-05-23T13:22:22Z</time>
      </trkpt>
      <trkpt lat="47.04448" lon="5.5929">
        <ele>247.29</ele>
        <time>2019-05-23T13:22:36Z</time>
      </trkpt>
      <trkpt lat="47.04465" lon="5.59279">
        <ele>244.28</ele>
        <time>2019-05-23T13:22:49Z</time>
      </trkpt>
      <trkpt lat="47.04482" lon="5.59269">
        <ele>243.25</ele>
        <time>2019-05-23T13:23:01Z</time>
      </trkpt>
      <trkpt lat="47.045" lon="5.59261">
        <ele>242.26</ele>
        <time>2019-05-23T13:23:16Z</time>
      </trkpt>
      <trkpt lat="47.04518" lon="5.59255">
        <ele>243.93</ele>
        <time>2019-05-23T13:23:31Z</time>
      </trkpt>
      <trkpt lat="47.04536" lon="5.59247">
        <ele>246.24</ele>
        <time>2019-05-23T13:23:47Z</time>
      </trkpt>
      <trkpt lat="47.04551" lon="5.5923">
        <ele>245.26</ele>
        <time>2019-05-23T13:24:03Z</time>
      </trkpt>
      <trkpt lat="47.04568" lon="5.59222">
        <ele>244.26</ele>
        <time>2019-05-23T13:24:18Z</time>
      </trkpt>
      <trkpt lat="47.04585" lon="5.59212">
        <ele>245.96</ele>
        <time>2019-05-23T13:24:34Z</time>
      </trkpt>
      <trkpt lat="47.04603" lon="5.59202">
        <ele>247.25</ele>
        <time>2019-05-23T13:24:46Z</time>
      </trkpt>
      <trkpt lat="47.0462" lon="5.59192">
        <ele>243.35</ele>
        <time>2019-05-23T13:25:00Z</time>
      </trkpt>
      <trkpt lat="47.04637" lon="5.59181">
        <ele>241.23</ele>
        <time>2019-05-23T13:25:16Z</time>
      </trkpt>
      <trkpt lat="47.04654" lon="5.59171">
        <ele>241.26</ele>
        <time>2019-05-23T13:25:31Z</time>
      </trkpt>
      <trkpt lat="47.04671" lon="5.5916">
        <ele>245.18</ele>
        <time>2019-05-23T13:25:49Z</time>
      </trkpt>
      <trkpt lat="47.04689" lon="5.59154">
        <ele>242.26</ele>
        <time>2019-05-23T13:26:06Z</time>
      </trkpt>
      <trkpt lat="47.04706" lon="5.59143">
        <ele>238.29</ele>
        <time>2019-05-23T13:26:23Z</time>
      </trkpt>
      <trkpt lat="47.04725" lon="5.5914">
        <ele>239.53</ele>
        <time>2019-05-23T13:26:38Z</time>
      </trkpt>
      <trkpt lat="47.04743" lon="5.59147">
        <ele>239.23</ele>
        <time>2019-05-23T13:27:02Z</time>
      </trkpt>
      <trkpt lat="47.04758" lon="5.59162">
        <ele>238.18</ele>
        <time>2019-05-23T13:27:15Z</time>
      </trkpt>
      <trkpt lat="47.04771" lon="5.5918">
        <ele>241.26</ele>
        <time>2019-05-23T13:27:29Z</time>
      </trkpt>
      <trkpt lat="47.04787" lon="5.59195">
        <ele>237.28</ele>
        <time>2019-05-23T13:27:43Z</time>
      </trkpt>
      <trkpt lat="47.04805" lon="5.59202">
        <ele>239.56</ele>
        <time>2019-05-23T13:27:58Z</time>
      </trkpt>
      <trkpt lat="47.04823" lon="5.59215">
        <ele>239.26</ele>
        <time>2019-05-23T13:28:13Z</time>
      </trkpt>
      <trkpt lat="47.04842" lon="5.59212">
        <ele>242.16</ele>
        <time>2019-05-23T13:28:25Z</time>
      </trkpt>
      <trkpt lat="47.0486" lon="5.59217">
        <ele>239.29</ele>
        <time>2019-05-23T13:28:37Z</time>
      </trkpt>
      <trkpt lat="47.04873" lon="5.59236">
        <ele>233.26</ele>
        <time>2019-05-23T13:28:59Z</time>
      </trkpt>
      <trkpt lat="47.04879" lon="5.59261">
        <ele>236.25</ele>
        <time>2019-05-23T13:29:33Z</time>
      </trkpt>
      <trkpt lat="47.04875" lon="5.59288">
        <ele>234.34</ele>
        <time>2019-05-23T13:29:47Z</time>
      </trkpt>
      <trkpt lat="47.04874" lon="5.59315">
        <ele>231.33</ele>
        <time>2019-05-23T13:29:59Z</time>
      </trkpt>
      <trkpt lat="47.04872" lon="5.59343">
        <ele>231.26</ele>
        <time>2019-05-23T13:30:12Z</time>
      </trkpt>
      <trkpt lat="47.04861" lon="5.59365">
        <ele>229.56</ele>
        <time>2019-05-23T13:30:30Z</time>
      </trkpt>
      <trkpt lat="47.04851" lon="5.59387">
        <ele>231.31</ele>
        <time>2019-05-23T13:30:48Z</time>
      </trkpt>
      <trkpt lat="47.04841" lon="5.5941">
        <ele>234.05</ele>
        <time>2019-05-23T13:31:09Z</time>
      </trkpt>
      <trkpt lat="47.04827" lon="5.59428">
        <ele>231.65</ele>
        <time>2019-05-23T13:31:22Z</time>
      </trkpt>
      <trkpt lat="47.04813" lon="5.59448">
        <ele>231.26</ele>
        <time>2019-05-23T13:31:40Z</time>
      </trkpt>
      <trkpt lat="47.04799" lon="5.59466">
        <ele>231.19</ele>
        <time>2019-05-23T13:31:54Z</time>
      </trkpt>
      <trkpt lat="47.0479" lon="5.59489">
        <ele>232.26</ele>
        <time>2019-05-23T13:32:06Z</time>
      </trkpt>
      <trkpt lat="47.04787" lon="5.59517">
        <ele>230.57</ele>
        <time>2019-05-23T13:32:18Z</time>
      </trkpt>
      <trkpt lat="47.04784" lon="5.59544">
        <ele>234.16</ele>
        <time>2019-05-23T13:32:31Z</time>
      </trkpt>
      <trkpt lat="47.04769" lon="5.59559">
        <ele>233.95</ele>
        <time>2019-05-23T13:32:47Z</time>
      </trkpt>
      <trkpt lat="47.04755" lon="5.59576">
        <ele>233.26</ele>
        <time>2019-05-23T13:33:00Z</time>
      </trkpt>
      <trkpt lat="47.04746" lon="5.596">
        <ele>231.96</ele>
        <time>2019-05-23T13:33:17Z</time>
      </trkpt>
      <trkpt lat="47.0473" lon="5.59616">
        <ele>234.24</ele>
        <time>2019-05-23T13:33:35Z</time>
      </trkpt>
      <trkpt lat="47.04715" lon="5.59631">
        <ele>236.23</ele>
        <time>2019-05-23T13:33:54Z</time>
      </trkpt>
      <trkpt lat="47.04702" lon="5.59652">
        <ele>235.53</ele>
        <time>2019-05-23T13:34:10Z</time>
      </trkpt>
      <trkpt lat="47.04691" lon="5.59673">
        <ele>234.96</ele>
        <time>2019-05-23T13:34:24Z</time>
      </trkpt>
      <trkpt lat="47.04676" lon="5.59693">
        <ele>232.68</ele>
        <time>2019-05-23T13:34:39Z</time>
      </trkpt>
      <trkpt lat="47.04664" lon="5.59715">
        <ele>231.96</ele>
        <time>2019-05-23T13:34:55Z</time>
      </trkpt>
      <trkpt lat="47.04657" lon="5.5974">
        <ele>230.56</ele>
        <time>2019-05-23T13:35:08Z</time>
      </trkpt>
      <trkpt lat="47.04652" lon="5.59766">
        <ele>229.25</ele>
        <time>2019-05-23T13:35:24Z</time>
      </trkpt>
      <trkpt lat="47.04643" lon="5.59789">
        <ele>227.99</ele>
        <time>2019-05-23T13:35:40Z</time>
      </trkpt>
      <trkpt lat="47.04633" lon="5.59812">
        <ele>229.35</ele>
        <time>2019-05-23T13:35:55Z</time>
      </trkpt>
      <trkpt lat="47.04633" lon="5.59839">
        <ele>229.23</ele>
        <time>2019-05-23T13:36:10Z</time>
      </trkpt>
      <trkpt lat="47.04628" lon="5.59865">
        <ele>230.17</ele>
        <time>2019-05-23T13:36:26Z</time>
      </trkpt>
      <trkpt lat="47.04625" lon="5.59892">
        <ele>231.24</ele>
        <time>2019-05-23T13:36:38Z</time>
      </trkpt>
      <trkpt lat="47.04612" lon="5.59912">
        <ele>230.26</ele>
        <time>2019-05-23T13:36:58Z</time>
      </trkpt>
      <trkpt lat="47.04604" lon="5.59936">
        <ele>232.49</ele>
        <time>2019-05-23T13:37:20Z</time>
      </trkpt>
      <trkpt lat="47.04593" lon="5.59956">
        <ele>233.23</ele>
        <time>2019-05-23T13:37:35Z</time>
      </trkpt>
      <trkpt lat="47.04581" lon="5.59978">
        <ele>233.26</ele>
        <time>2019-05-23T13:37:50Z</time>
      </trkpt>
      <trkpt lat="47.04571" lon="5.6">
        <ele>233.2</ele>
        <time>2019-05-23T13:38:04Z</time>
      </trkpt>
      <trkpt lat="47.0457" lon="5.60033">
        <ele>231.26</ele>
        <time>2019-05-23T13:38:18Z</time>
      </trkpt>
      <trkpt lat="47.04559" lon="5.60056">
        <ele>230.14</ele>
        <time>2019-05-23T13:38:35Z</time>
      </trkpt>
      <trkpt lat="47.04555" lon="5.60083">
        <ele>231.53</ele>
        <time>2019-05-23T13:38:51Z</time>
      </trkpt>
      <trkpt lat="47.04559" lon="5.60109">
        <ele>233.16</ele>
        <time>2019-05-23T13:39:06Z</time>
      </trkpt>
      <trkpt lat="47.04558" lon="5.60137">
        <ele>232.84</ele>
        <time>2019-05-23T13:39:24Z</time>
      </trkpt>
      <trkpt lat="47.0456" lon="5.60163">
        <ele>234.88</ele>
        <time>2019-05-23T13:39:38Z</time>
      </trkpt>
      <trkpt lat="47.0456" lon="5.6019">
        <ele>235.46</ele>
        <time>2019-05-23T13:39:51Z</time>
      </trkpt>
      <trkpt lat="47.04552" lon="5.60214">
        <ele>238.18</ele>
        <time>2019-05-23T13:40:11Z</time>
      </trkpt>
      <trkpt lat="47.04548" lon="5.6024">
        <ele>235.56</ele>
        <time>2019-05-23T13:40:24Z</time>
      </trkpt>
      <trkpt lat="47.04541" lon="5.60265">
        <ele>236.95</ele>
        <time>2019-05-23T13:40:42Z</time>
      </trkpt>
      <trkpt lat="47.04537" lon="5.60291">
        <ele>237.26</ele>
        <time>2019-05-23T13:40:56Z</time>
      </trkpt>
      <trkpt lat="47.04536" lon="5.60319">
        <ele>236.56</ele>
        <time>2019-05-23T13:41:16Z</time>
      </trkpt>
      <trkpt lat="47.04541" lon="5.60346">
        <ele>238.27</ele>
        <time>2019-05-23T13:41:33Z</time>
      </trkpt>
      <trkpt lat="47.04546" lon="5.60372">
        <ele>235.54</ele>
        <time>2019-05-23T13:41:45Z</time>
      </trkpt>
      <trkpt lat="47.04547" lon="5.604">
        <ele>235.25</ele>
        <time>2019-05-23T13:42:04Z</time>
      </trkpt>
      <trkpt lat="47.0455" lon="5.60427">
        <ele>234.47</ele>
        <time>2019-05-23T13:42:18Z</time>
      </trkpt>
      <trkpt lat="47.04556" lon="5.60454">
        <ele>231.99</ele>
        <time>2019-05-23T13:42:31Z</time>
      </trkpt>
      <trkpt lat="47.04571" lon="5.6047">
        <ele>231.26</ele>
        <time>2019-05-23T13:45:31Z</time>
      </trkpt>
      <trkpt lat="47.04553" lon="5.6047">
        <ele>232.74</ele>
        <time>2019-05-23T13:48:35Z</time>
      </trkpt>
      <trkpt lat="47.04536" lon="5.6048">
        <ele>236.92</ele>
        <time>2019-05-23T13:49:04Z</time>
      </trkpt>
      <trkpt lat="47.04518" lon="5.60485">
        <ele>238.26</ele>
        <time>2019-05-23T13:49:23Z</time>
      </trkpt>
      <trkpt lat="47.04501" lon="5.60494">
        <ele>240.26</ele>
        <time>2019-05-23T13:49:38Z</time>
      </trkpt>
      <trkpt lat="47.04483" lon="5.60499">
        <ele>244.14</ele>
        <time>2019-05-23T13:49:55Z</time>
      </trkpt>
      <trkpt lat="47.04466" lon="5.60514">
        <ele>245.26</ele>
        <time>2019-05-23T13:50:10Z</time>
      </trkpt>
      <trkpt lat="47.04448" lon="5.60518">
        <ele>244.28</ele>
        <time>2019-05-23T13:50:22Z</time>
      </trkpt>
      <trkpt lat="47.04431" lon="5.60528">
        <ele>244.25</ele>
        <time>2019-05-23T13:50:38Z</time>
      </trkpt>
      <trkpt lat="47.04416" lon="5.60544">
        <ele>245.56</ele>
        <time>2019-05-23T13:50:54Z</time>
      </trkpt>
      <trkpt lat="47.04398" lon="5.60548">
        <ele>247.25</ele>
        <time>2019-05-23T13:51:06Z</time>
      </trkpt>
      <trkpt lat="47.04379" lon="5.60556">
        <ele>247.49</ele>
        <time>2019-05-23T13:51:22Z</time>
      </trkpt>
      <trkpt lat="47.04361" lon="5.60565">
        <ele>249.05</ele>
        <time>2019-05-23T13:51:37Z</time>
      </trkpt>
      <trkpt lat="47.04343" lon="5.60571">
        <ele>246.93</ele>
        <time>2019-05-23T13:51:53Z</time>
      </trkpt>
      <trkpt lat="47.04326" lon="5.60579">
        <ele>250.54</ele>
        <time>2019-05-23T13:52:07Z</time>
      </trkpt>
      <trkpt lat="47.04308" lon="5.60586">
        <ele>250.28</ele>
        <time>2019-05-23T13:52:21Z</time>
      </trkpt>
      <trkpt lat="47.04291" lon="5.60596">
        <ele>249.56</ele>
        <time>2019-05-23T13:52:36Z</time>
      </trkpt>
      <trkpt lat="47.04274" lon="5.60606">
        <ele>251.28</ele>
        <time>2019-05-23T13:52:50Z</time>
      </trkpt>
      <trkpt lat="47.04255" lon="5.60615">
        <ele>249.07</ele>
        <time>2019-05-23T13:53:06Z</time>
      </trkpt>
      <trkpt lat="47.04239" lon="5.60626">
        <ele>250.04</ele>
        <time>2019-05-23T13:53:19Z</time>
      </trkpt>
      <trkpt lat="47.0422" lon="5.60634">
        <ele>251.26</ele>
        <time>2019-05-23T13:53:34Z</time>
      </trkpt>
      <trkpt lat="47.04202" lon="5.60644">
        <ele>251.28</ele>
        <time>2019-05-23T13:53:48Z</time>
      </trkpt>
      <trkpt lat="47.04185" lon="5.60657">
        <ele>253.25</ele>
        <time>2019-05-23T13:54:04Z</time>
      </trkpt>
      <trkpt lat="47.04169" lon="5.60669">
        <ele>249.35</ele>
        <time>2019-05-23T13:54:16Z</time>
      </trkpt>
      <trkpt lat="47.0415" lon="5.60676">
        <ele>249.17</ele>
        <time>2019-05-23T13:54:33Z</time>
      </trkpt>
      <trkpt lat="47.04132" lon="5.60682">
        <ele>248.65</ele>
        <time>2019-05-23T13:54:47Z</time>
      </trkpt>
      <trkpt lat="47.04115" lon="5.60692">
        <ele>249.98</ele>
        <time>2019-05-23T13:55:02Z</time>
      </trkpt>
      <trkpt lat="47.04098" lon="5.60702">
        <ele>250.26</ele>
        <time>2019-05-23T13:55:15Z</time>
      </trkpt>
      <trkpt lat="47.0408" lon="5.60708">
        <ele>249.58</ele>
        <time>2019-05-23T13:55:31Z</time>
      </trkpt>
      <trkpt lat="47.04063" lon="5.60719">
        <ele>248.28</ele>
        <time>2019-05-23T13:55:45Z</time>
      </trkpt>
      <trkpt lat="47.04045" lon="5.60728">
        <ele>248.35</ele>
        <time>2019-05-23T13:56:01Z</time>
      </trkpt>
      <trkpt lat="47.04028" lon="5.60737">
        <ele>247.54</ele>
        <time>2019-05-23T13:56:15Z</time>
      </trkpt>
      <trkpt lat="47.0401" lon="5.6075">
        <ele>245.17</ele>
        <time>2019-05-23T13:56:29Z</time>
      </trkpt>
      <trkpt lat="47.03993" lon="5.60757">
        <ele>244.27</ele>
        <time>2019-05-23T13:56:44Z</time>
      </trkpt>
      <trkpt lat="47.03976" lon="5.60768">
        <ele>245.96</ele>
        <time>2019-05-23T13:56:58Z</time>
      </trkpt>
      <trkpt lat="47.03959" lon="5.60781">
        <ele>243.26</ele>
        <time>2019-05-23T13:57:13Z</time>
      </trkpt>
      <trkpt lat="47.03944" lon="5.60797">
        <ele>244.05</ele>
        <time>2019-05-23T13:57:25Z</time>
      </trkpt>
      <trkpt lat="47.03925" lon="5.60799">
        <ele>242.26</ele>
        <time>2019-05-23T13:57:39Z</time>
      </trkpt>
      <trkpt lat="47.03907" lon="5.60807">
        <ele>247.17</ele>
        <time>2019-05-23T13:57:58Z</time>
      </trkpt>
      <trkpt lat="47.03889" lon="5.60813">
        <ele>250.25</ele>
        <time>2019-05-23T13:58:12Z</time>
      </trkpt>
      <trkpt lat="47.03872" lon="5.6082">
        <ele>248.95</ele>
        <time>2019-05-23T13:58:26Z</time>
      </trkpt>
      <trkpt lat="47.03855" lon="5.60828">
        <ele>249.26</ele>
        <time>2019-05-23T13:58:39Z</time>
      </trkpt>
      <trkpt lat="47.03838" lon="5.60839">
        <ele>246.29</ele>
        <time>2019-05-23T13:58:54Z</time>
      </trkpt>
      <trkpt lat="47.03821" lon="5.60851">
        <ele>246.35</ele>
        <time>2019-05-23T13:59:09Z</time>
      </trkpt>
      <trkpt lat="47.03804" lon="5.60863">
        <ele>246.98</ele>
        <time>2019-05-23T13:59:22Z</time>
      </trkpt>
      <trkpt lat="47.03786" lon="5.60873">
        <ele>247.25</ele>
        <time>2019-05-23T13:59:39Z</time>
      </trkpt>
      <trkpt lat="47.03768" lon="5.60883">
        <ele>247.26</ele>
        <time>2019-05-23T13:59:53Z</time>
      </trkpt>
      <trkpt lat="47.0375" lon="5.60888">
        <ele>245.27</ele>
        <time>2019-05-23T14:00:08Z</time>
      </trkpt>
      <trkpt lat="47.03733" lon="5.60899">
        <ele>246.26</ele>
        <time>2019-05-23T14:00:23Z</time>
      </trkpt>
      <trkpt lat="47.03714" lon="5.60905">
        <ele>246.27</ele>
        <time>2019-05-23T14:00:37Z</time>
      </trkpt>
      <trkpt lat="47.03696" lon="5.60916">
        <ele>246.26</ele>
        <time>2019-05-23T14:00:52Z</time>
      </trkpt>
      <trkpt lat="47.03678" lon="5.60925">
        <ele>245.35</ele>
        <time>2019-05-23T14:01:06Z</time>
      </trkpt>
      <trkpt lat="47.03661" lon="5.60934">
        <ele>244.26</ele>
        <time>2019-05-23T14:01:20Z</time>
      </trkpt>
      <trkpt lat="47.03644" lon="5.60943">
        <ele>242.27</ele>
        <time>2019-05-23T14:01:35Z</time>
      </trkpt>
      <trkpt lat="47.0363" lon="5.60961">
        <ele>239.25</ele>
        <time>2019-05-23T14:13:14Z</time>
      </trkpt>
      <trkpt lat="47.03611" lon="5.60964">
        <ele>242.25</ele>
        <time>2019-05-23T14:13:29Z</time>
      </trkpt>
      <trkpt lat="47.03593" lon="5.60972">
        <ele>243.26</ele>
        <time>2019-05-23T14:13:42Z</time>
      </trkpt>
      <trkpt lat="47.03575" lon="5.60978">
        <ele>247.23</ele>
        <time>2019-05-23T14:13:57Z</time>
      </trkpt>
      <trkpt lat="47.03558" lon="5.60991">
        <ele>251.25</ele>
        <time>2019-05-23T14:14:11Z</time>
      </trkpt>
      <trkpt lat="47.03541" lon="5.60999">
        <ele>251.23</ele>
        <time>2019-05-23T14:14:25Z</time>
      </trkpt>
      <trkpt lat="47.03523" lon="5.61008">
        <ele>247.65</ele>
        <time>2019-05-23T14:14:39Z</time>
      </trkpt>
      <trkpt lat="47.03505" lon="5.61016">
        <ele>247.17</ele>
        <time>2019-05-23T14:14:54Z</time>
      </trkpt>
      <trkpt lat="47.03486" lon="5.61026">
        <ele>247.26</ele>
        <time>2019-05-23T14:15:08Z</time>
      </trkpt>
      <trkpt lat="47.03469" lon="5.61037">
        <ele>251.23</ele>
        <time>2019-05-23T14:15:20Z</time>
      </trkpt>
      <trkpt lat="47.03452" lon="5.61043">
        <ele>250.02</ele>
        <time>2019-05-23T14:15:36Z</time>
      </trkpt>
      <trkpt lat="47.03433" lon="5.61048">
        <ele>247.36</ele>
        <time>2019-05-23T14:15:50Z</time>
      </trkpt>
      <trkpt lat="47.03417" lon="5.6106">
        <ele>245.27</ele>
        <time>2019-05-23T14:16:02Z</time>
      </trkpt>
      <trkpt lat="47.03399" lon="5.61071">
        <ele>245.65</ele>
        <time>2019-05-23T14:16:15Z</time>
      </trkpt>
      <trkpt lat="47.03383" lon="5.61082">
        <ele>246.26</ele>
        <time>2019-05-23T14:16:30Z</time>
      </trkpt>
      <trkpt lat="47.03366" lon="5.61092">
        <ele>246.96</ele>
        <time>2019-05-23T14:16:43Z</time>
      </trkpt>
      <trkpt lat="47.03348" lon="5.61099">
        <ele>248.26</ele>
        <time>2019-05-23T14:16:57Z</time>
      </trkpt>
      <trkpt lat="47.03332" lon="5.61112">
        <ele>249.26</ele>
        <time>2019-05-23T14:17:11Z</time>
      </trkpt>
      <trkpt lat="47.03315" lon="5.61122">
        <ele>249.26</ele>
        <time>2019-05-23T14:17:24Z</time>
      </trkpt>
      <trkpt lat="47.03298" lon="5.61129">
        <ele>250.26</ele>
        <time>2019-05-23T14:17:38Z</time>
      </trkpt>
      <trkpt lat="47.03279" lon="5.61135">
        <ele>250.26</ele>
        <time>2019-05-23T14:17:55Z</time>
      </trkpt>
      <trkpt lat="47.03262" lon="5.61145">
        <ele>248.56</ele>
        <time>2019-05-23T14:18:07Z</time>
      </trkpt>
      <trkpt lat="47.03245" lon="5.61154">
        <ele>247.55</ele>
        <time>2019-05-23T14:18:22Z</time>
      </trkpt>
      <trkpt lat="47.03227" lon="5.61161">
        <ele>248.25</ele>
        <time>2019-05-23T14:18:37Z</time>
      </trkpt>
      <trkpt lat="47.0321" lon="5.61174">
        <ele>247.56</ele>
        <time>2019-05-23T14:18:52Z</time>
      </trkpt>
      <trkpt lat="47.03191" lon="5.61182">
        <ele>247.06</ele>
        <time>2019-05-23T14:19:05Z</time>
      </trkpt>
      <trkpt lat="47.03173" lon="5.6119">
        <ele>244.28</ele>
        <time>2019-05-23T14:19:19Z</time>
      </trkpt>
      <trkpt lat="47.03157" lon="5.61203">
        <ele>247.23</ele>
        <time>2019-05-23T14:19:36Z</time>
      </trkpt>
      <trkpt lat="47.03144" lon="5.61221">
        <ele>246.58</ele>
        <time>2019-05-23T14:19:48Z</time>
      </trkpt>
      <trkpt lat="47.03127" lon="5.61229">
        <ele>243.35</ele>
        <time>2019-05-23T14:20:03Z</time>
      </trkpt>
      <trkpt lat="47.03109" lon="5.61235">
        <ele>242.26</ele>
        <time>2019-05-23T14:20:18Z</time>
      </trkpt>
      <trkpt lat="47.0309" lon="5.61238">
        <ele>243.17</ele>
        <time>2019-05-23T14:20:32Z</time>
      </trkpt>
      <trkpt lat="47.03071" lon="5.61244">
        <ele>243.26</ele>
        <time>2019-05-23T14:20:48Z</time>
      </trkpt>
      <trkpt lat="47.03052" lon="5.61251">
        <ele>245.14</ele>
        <time>2019-05-23T14:21:02Z</time>
      </trkpt>
      <trkpt lat="47.03035" lon="5.61259">
        <ele>244.35</ele>
        <time>2019-05-23T14:21:19Z</time>
      </trkpt>
      <trkpt lat="47.03018" lon="5.61269">
        <ele>247.26</ele>
        <time>2019-05-23T14:21:33Z</time>
      </trkpt>
      <trkpt lat="47.03001" lon="5.61279">
        <ele>249.96</ele>
        <time>2019-05-23T14:21:46Z</time>
      </trkpt>
      <trkpt lat="47.02984" lon="5.61288">
        <ele>250.26</ele>
        <time>2019-05-23T14:22:03Z</time>
      </trkpt>
      <trkpt lat="47.02966" lon="5.61295">
        <ele>249.96</ele>
        <time>2019-05-23T14:22:15Z</time>
      </trkpt>
      <trkpt lat="47.02949" lon="5.61307">
        <ele>251.98</ele>
        <time>2019-05-23T14:22:31Z</time>
      </trkpt>
      <trkpt lat="47.02931" lon="5.61318">
        <ele>248.28</ele>
        <time>2019-05-23T14:22:43Z</time>
      </trkpt>
      <trkpt lat="47.02915" lon="5.61331">
        <ele>245.26</ele>
        <time>2019-05-23T14:22:57Z</time>
      </trkpt>
      <trkpt lat="47.02897" lon="5.61336">
        <ele>246.58</ele>
        <time>2019-05-23T14:23:12Z</time>
      </trkpt>
      <trkpt lat="47.02878" lon="5.61345">
        <ele>245.26</ele>
        <time>2019-05-23T14:23:24Z</time>
      </trkpt>
      <trkpt lat="47.02861" lon="5.61353">
        <ele>245.17</ele>
        <time>2019-05-23T14:23:39Z</time>
      </trkpt>
      <trkpt lat="47.02843" lon="5.6136">
        <ele>245.48</ele>
        <time>2019-05-23T14:23:53Z</time>
      </trkpt>
      <trkpt lat="47.02825" lon="5.61369">
        <ele>248.23</ele>
        <time>2019-05-23T14:24:05Z</time>
      </trkpt>
      <trkpt lat="47.02813" lon="5.61389">
        <ele>244.27</ele>
        <time>2019-05-23T14:24:17Z</time>
      </trkpt>
      <trkpt lat="47.02795" lon="5.61396">
        <ele>244.05</ele>
        <time>2019-05-23T14:24:33Z</time>
      </trkpt>
      <trkpt lat="47.02776" lon="5.614">
        <ele>244.87</ele>
        <time>2019-05-23T14:24:50Z</time>
      </trkpt>
      <trkpt lat="47.02758" lon="5.61403">
        <ele>248.16</ele>
        <time>2019-05-23T14:25:06Z</time>
      </trkpt>
      <trkpt lat="47.0274" lon="5.6141">
        <ele>251.25</ele>
        <time>2019-05-23T14:25:17Z</time>
      </trkpt>
      <trkpt lat="47.02724" lon="5.61421">
        <ele>250.27</ele>
        <time>2019-05-23T14:25:31Z</time>
      </trkpt>
      <trkpt lat="47.02706" lon="5.61432">
        <ele>247.26</ele>
        <time>2019-05-23T14:25:46Z</time>
      </trkpt>
      <trkpt lat="47.02689" lon="5.6144">
        <ele>247.56</ele>
        <time>2019-05-23T14:26:00Z</time>
      </trkpt>
      <trkpt lat="47.02671" lon="5.61447">
        <ele>248.26</ele>
        <time>2019-05-23T14:26:12Z</time>
      </trkpt>
      <trkpt lat="47.02654" lon="5.61457">
        <ele>249.46</ele>
        <time>2019-05-23T14:26:28Z</time>
      </trkpt>
      <trkpt lat="47.02637" lon="5.61467">
        <ele>248.17</ele>
        <time>2019-05-23T14:26:41Z</time>
      </trkpt>
      <trkpt lat="47.0262" lon="5.61479">
        <ele>246.18</ele>
        <time>2019-05-23T14:26:55Z</time>
      </trkpt>
      <trkpt lat="47.02602" lon="5.61489">
        <ele>243.06</ele>
        <time>2019-05-23T14:27:07Z</time>
      </trkpt>
      <trkpt lat="47.02586" lon="5.61501">
        <ele>241.26</ele>
        <time>2019-05-23T14:27:20Z</time>
      </trkpt>
      <trkpt lat="47.02568" lon="5.6151">
        <ele>240.95</ele>
        <time>2019-05-23T14:27:37Z</time>
      </trkpt>
      <trkpt lat="47.02556" lon="5.61533">
        <ele>233.32</ele>
        <time>2019-05-23T14:28:30Z</time>
      </trkpt>
      <trkpt lat="47.02538" lon="5.61523">
        <ele>233.66</ele>
        <time>2019-05-23T14:29:17Z</time>
      </trkpt>
      <trkpt lat="47.02524" lon="5.61541">
        <ele>227.26</ele>
        <time>2019-05-23T14:30:07Z</time>
      </trkpt>
      <trkpt lat="47.02507" lon="5.6155">
        <ele>225.97</ele>
        <time>2019-05-23T14:31:14Z</time>
      </trkpt>
      <trkpt lat="47.0249" lon="5.61561">
        <ele>234.23</ele>
        <time>2019-05-23T14:34:10Z</time>
      </trkpt>
      <trkpt lat="47.02471" lon="5.61563">
        <ele>235.96</ele>
        <time>2019-05-23T14:34:23Z</time>
      </trkpt>
      <trkpt lat="47.02453" lon="5.61567">
        <ele>239.17</ele>
        <time>2019-05-23T14:34:34Z</time>
      </trkpt>
      <trkpt lat="47.02435" lon="5.61576">
        <ele>239.35</ele>
        <time>2019-05-23T14:34:46Z</time>
      </trkpt>
      <trkpt lat="47.02418" lon="5.61588">
        <ele>238.35</ele>
        <time>2019-05-23T14:34:58Z</time>
      </trkpt>
      <trkpt lat="47.024" lon="5.61596">
        <ele>239.04</ele>
        <time>2019-05-23T14:35:10Z</time>
      </trkpt>
      <trkpt lat="47.02382" lon="5.61603">
        <ele>237.55</ele>
        <time>2019-05-23T14:35:23Z</time>
      </trkpt>
      <trkpt lat="47.02365" lon="5.61614">
        <ele>234.56</ele>
        <time>2019-05-23T14:35:35Z</time>
      </trkpt>
      <trkpt lat="47.02347" lon="5.61623">
        <ele>232.26</ele>
        <time>2019-05-23T14:35:50Z</time>
      </trkpt>
      <trkpt lat="47.02329" lon="5.61634">
        <ele>233.23</ele>
        <time>2019-05-23T14:36:03Z</time>
      </trkpt>
      <trkpt lat="47.02312" lon="5.61645">
        <ele>231.28</ele>
        <time>2019-05-23T14:36:17Z</time>
      </trkpt>
      <trkpt lat="47.02294" lon="5.61651">
        <ele>231.97</ele>
        <time>2019-05-23T14:36:31Z</time>
      </trkpt>
      <trkpt lat="47.02279" lon="5.61635">
        <ele>227.65</ele>
        <time>2019-05-23T14:37:20Z</time>
      </trkpt>
      <trkpt lat="47.02269" lon="5.61611">
        <ele>225.98</ele>
        <time>2019-05-23T14:37:40Z</time>
      </trkpt>
      <trkpt lat="47.02262" lon="5.61586">
        <ele>226.24</ele>
        <time>2019-05-23T14:37:59Z</time>
      </trkpt>
      <trkpt lat="47.02257" lon="5.61561">
        <ele>226.26</ele>
        <time>2019-05-23T14:38:13Z</time>
      </trkpt>
      <trkpt lat="47.02251" lon="5.61534">
        <ele>228.23</ele>
        <time>2019-05-23T14:38:30Z</time>
      </trkpt>
      <trkpt lat="47.02243" lon="5.6151">
        <ele>228.23</ele>
        <time>2019-05-23T14:38:45Z</time>
      </trkpt>
      <trkpt lat="47.02236" lon="5.61485">
        <ele>228.93</ele>
        <time>2019-05-23T14:39:04Z</time>
      </trkpt>
      <trkpt lat="47.02217" lon="5.61488">
        <ele>231.26</ele>
        <time>2019-05-23T14:39:19Z</time>
      </trkpt>
      <trkpt lat="47.02199" lon="5.61496">
        <ele>232.25</ele>
        <time>2019-05-23T14:39:37Z</time>
      </trkpt>
      <trkpt lat="47.02181" lon="5.615">
        <ele>234.95</ele>
        <time>2019-05-23T14:39:51Z</time>
      </trkpt>
      <trkpt lat="47.02164" lon="5.61511">
        <ele>235.28</ele>
        <time>2019-05-23T14:40:07Z</time>
      </trkpt>
      <trkpt lat="47.02146" lon="5.61511">
        <ele>233.96</ele>
        <time>2019-05-23T14:40:28Z</time>
      </trkpt>
      <trkpt lat="47.02137" lon="5.61487">
        <ele>233.57</ele>
        <time>2019-05-23T14:40:48Z</time>
      </trkpt>
      <trkpt lat="47.02132" lon="5.6146">
        <ele>232.26</ele>
        <time>2019-05-23T14:41:06Z</time>
      </trkpt>
      <trkpt lat="47.02128" lon="5.61435">
        <ele>232.26</ele>
        <time>2019-05-23T14:41:24Z</time>
      </trkpt>
      <trkpt lat="47.02122" lon="5.61409">
        <ele>233.04</ele>
        <time>2019-05-23T14:41:42Z</time>
      </trkpt>
      <trkpt lat="47.02118" lon="5.61381">
        <ele>232.26</ele>
        <time>2019-05-23T14:41:56Z</time>
      </trkpt>
      <trkpt lat="47.02113" lon="5.61355">
        <ele>232.04</ele>
        <time>2019-05-23T14:42:14Z</time>
      </trkpt>
      <trkpt lat="47.0211" lon="5.61327">
        <ele>232.28</ele>
        <time>2019-05-23T14:42:35Z</time>
      </trkpt>
      <trkpt lat="47.021" lon="5.61303">
        <ele>232.56</ele>
        <time>2019-05-23T14:42:48Z</time>
      </trkpt>
      <trkpt lat="47.021" lon="5.61275">
        <ele>231.96</ele>
        <time>2019-05-23T14:43:09Z</time>
      </trkpt>
      <trkpt lat="47.0209" lon="5.61252">
        <ele>232.28</ele>
        <time>2019-05-23T14:43:33Z</time>
      </trkpt>
      <trkpt lat="47.02093" lon="5.61225">
        <ele>230.26</ele>
        <time>2019-05-23T14:43:50Z</time>
      </trkpt>
      <trkpt lat="47.02086" lon="5.61199">
        <ele>231.02</ele>
        <time>2019-05-23T14:44:17Z</time>
      </trkpt>
      <trkpt lat="47.0208" lon="5.61173">
        <ele>232.32</ele>
        <time>2019-05-23T14:44:31Z</time>
      </trkpt>
      <trkpt lat="47.02061" lon="5.61173">
        <ele>235.25</ele>
        <time>2019-05-23T14:45:06Z</time>
      </trkpt>
      <trkpt lat="47.02044" lon="5.61177">
        <ele>236.29</ele>
        <time>2019-05-23T14:45:26Z</time>
      </trkpt>
      <trkpt lat="47.02026" lon="5.61181">
        <ele>238.95</ele>
        <time>2019-05-23T14:45:49Z</time>
      </trkpt>
      <trkpt lat="47.02008" lon="5.6119">
        <ele>240.96</ele>
        <time>2019-05-23T14:46:06Z</time>
      </trkpt>
      <trkpt lat="47.01993" lon="5.61207">
        <ele>239.29</ele>
        <time>2019-05-23T14:46:19Z</time>
      </trkpt>
      <trkpt lat="47.01978" lon="5.61224">
        <ele>238.53</ele>
        <time>2019-05-23T14:46:41Z</time>
      </trkpt>
      <trkpt lat="47.01959" lon="5.61224">
        <ele>240.26</ele>
        <time>2019-05-23T14:47:05Z</time>
      </trkpt>
      <trkpt lat="47.01941" lon="5.61226">
        <ele>240.35</ele>
        <time>2019-05-23T14:47:23Z</time>
      </trkpt>
      <trkpt lat="47.01923" lon="5.61234">
        <ele>241.26</ele>
        <time>2019-05-23T14:47:38Z</time>
      </trkpt>
      <trkpt lat="47.01905" lon="5.61241">
        <ele>238.27</ele>
        <time>2019-05-23T14:47:55Z</time>
      </trkpt>
      <trkpt lat="47.01887" lon="5.61251">
        <ele>234.98</ele>
        <time>2019-05-23T14:48:10Z</time>
      </trkpt>
      <trkpt lat="47.01868" lon="5.61253">
        <ele>235.96</ele>
        <time>2019-05-23T14:48:35Z</time>
      </trkpt>
      <trkpt lat="47.01854" lon="5.61235">
        <ele>235.17</ele>
        <time>2019-05-23T14:48:54Z</time>
      </trkpt>
      <trkpt lat="47.01836" lon="5.61231">
        <ele>232.28</ele>
        <time>2019-05-23T14:49:12Z</time>
      </trkpt>
      <trkpt lat="47.01818" lon="5.61224">
        <ele>229.58</ele>
        <time>2019-05-23T14:49:30Z</time>
      </trkpt>
      <trkpt lat="47.018" lon="5.61229">
        <ele>226.67</ele>
        <time>2019-05-23T14:50:32Z</time>
      </trkpt>
      <trkpt lat="47.01802" lon="5.61256">
        <ele>221.54</ele>
        <time>2019-05-23T14:50:56Z</time>
      </trkpt>
      <trkpt lat="47.01805" lon="5.61282">
        <ele>222.24</ele>
        <time>2019-05-23T14:51:15Z</time>
      </trkpt>
      <trkpt lat="47.01802" lon="5.61309">
        <ele>222.65</ele>
        <time>2019-05-23T14:51:31Z</time>
      </trkpt>
      <trkpt lat="47.01785" lon="5.61296">
        <ele>229.28</ele>
        <time>2019-05-23T14:53:10Z</time>
      </trkpt>
      <trkpt lat="47.01773" lon="5.61276">
        <ele>228.56</ele>
        <time>2019-05-23T14:53:27Z</time>
      </trkpt>
      <trkpt lat="47.01759" lon="5.61259">
        <ele>228.24</ele>
        <time>2019-05-23T14:53:44Z</time>
      </trkpt>
      <trkpt lat="47.01742" lon="5.6125">
        <ele>226.27</ele>
        <time>2019-05-23T14:54:00Z</time>
      </trkpt>
      <trkpt lat="47.01724" lon="5.61257">
        <ele>221.29</ele>
        <time>2019-05-23T14:54:14Z</time>
      </trkpt>
      <trkpt lat="47.01706" lon="5.61257">
        <ele>218.56</ele>
        <time>2019-05-23T14:54:28Z</time>
      </trkpt>
      <trkpt lat="47.01688" lon="5.61258">
        <ele>217.26</ele>
        <time>2019-05-23T14:54:42Z</time>
      </trkpt>
      <trkpt lat="47.01669" lon="5.61261">
        <ele>215.17</ele>
        <time>2019-05-23T14:54:57Z</time>
      </trkpt>
      <trkpt lat="47.0165" lon="5.61264">
        <ele>215.26</ele>
        <time>2019-05-23T14:55:15Z</time>
      </trkpt>
      <trkpt lat="47.01633" lon="5.61253">
        <ele>213.24</ele>
        <time>2019-05-23T14:55:31Z</time>
      </trkpt>
      <trkpt lat="47.0162" lon="5.61234">
        <ele>212.27</ele>
        <time>2019-05-23T14:55:47Z</time>
      </trkpt>
      <trkpt lat="47.01607" lon="5.61216">
        <ele>213.19</ele>
        <time>2019-05-23T14:56:01Z</time>
      </trkpt>
      <trkpt lat="47.01595" lon="5.61194">
        <ele>213.47</ele>
        <time>2019-05-23T14:56:17Z</time>
      </trkpt>
      <trkpt lat="47.01587" lon="5.61169">
        <ele>213.95</ele>
        <time>2019-05-23T14:56:32Z</time>
      </trkpt>
      <trkpt lat="47.01577" lon="5.61145">
        <ele>214.04</ele>
        <time>2019-05-23T14:56:46Z</time>
      </trkpt>
      <trkpt lat="47.0157" lon="5.61121">
        <ele>214.26</ele>
        <time>2019-05-23T14:57:01Z</time>
      </trkpt>
      <trkpt lat="47.01569" lon="5.61094">
        <ele>214.26</ele>
        <time>2019-05-23T14:57:16Z</time>
      </trkpt>
      <trkpt lat="47.01574" lon="5.61067">
        <ele>212.26</ele>
        <time>2019-05-23T14:57:34Z</time>
      </trkpt>
      <trkpt lat="47.0158" lon="5.61041">
        <ele>213.32</ele>
        <time>2019-05-23T14:57:49Z</time>
      </trkpt>
      <trkpt lat="47.01584" lon="5.61016">
        <ele>212.97</ele>
        <time>2019-05-23T14:58:04Z</time>
      </trkpt>
      <trkpt lat="47.01587" lon="5.60989">
        <ele>211.55</ele>
        <time>2019-05-23T14:58:19Z</time>
      </trkpt>
      <trkpt lat="47.01585" lon="5.60963">
        <ele>211.26</ele>
        <time>2019-05-23T14:58:34Z</time>
      </trkpt>
      <trkpt lat="47.01582" lon="5.60935">
        <ele>212.26</ele>
        <time>2019-05-23T14:58:50Z</time>
      </trkpt>
      <trkpt lat="47.01577" lon="5.6091">
        <ele>213.26</ele>
        <time>2019-05-23T14:59:06Z</time>
      </trkpt>
      <trkpt lat="47.0157" lon="5.60885">
        <ele>214.19</ele>
        <time>2019-05-23T14:59:21Z</time>
      </trkpt>
      <trkpt lat="47.01564" lon="5.60859">
        <ele>214.25</ele>
        <time>2019-05-23T14:59:36Z</time>
      </trkpt>
      <trkpt lat="47.01557" lon="5.60834">
        <ele>214.05</ele>
        <time>2019-05-23T14:59:51Z</time>
      </trkpt>
      <trkpt lat="47.01548" lon="5.60809">
        <ele>213.26</ele>
        <time>2019-05-23T15:00:07Z</time>
      </trkpt>
      <trkpt lat="47.0154" lon="5.60784">
        <ele>214.26</ele>
        <time>2019-05-23T15:00:22Z</time>
      </trkpt>
      <trkpt lat="47.01529" lon="5.60761">
        <ele>213.98</ele>
        <time>2019-05-23T15:00:37Z</time>
      </trkpt>
      <trkpt lat="47.01517" lon="5.60742">
        <ele>213.25</ele>
        <time>2019-05-23T15:00:51Z</time>
      </trkpt>
      <trkpt lat="47.01503" lon="5.60723">
        <ele>212.26</ele>
        <time>2019-05-23T15:01:07Z</time>
      </trkpt>
      <trkpt lat="47.01491" lon="5.60703">
        <ele>212.23</ele>
        <time>2019-05-23T15:01:22Z</time>
      </trkpt>
      <trkpt lat="47.01477" lon="5.60683">
        <ele>211.26</ele>
        <time>2019-05-23T15:01:37Z</time>
      </trkpt>
      <trkpt lat="47.01464" lon="5.60664">
        <ele>212.26</ele>
        <time>2019-05-23T15:01:52Z</time>
      </trkpt>
      <trkpt lat="47.0145" lon="5.60644">
        <ele>210.56</ele>
        <time>2019-05-23T15:02:08Z</time>
      </trkpt>
      <trkpt lat="47.01436" lon="5.60626">
        <ele>210.95</ele>
        <time>2019-05-23T15:02:22Z</time>
      </trkpt>
      <trkpt lat="47.01421" lon="5.60608">
        <ele>212.23</ele>
        <time>2019-05-23T15:02:38Z</time>
      </trkpt>
      <trkpt lat="47.01408" lon="5.60589">
        <ele>212.17</ele>
        <time>2019-05-23T15:02:53Z</time>
      </trkpt>
      <trkpt lat="47.01395" lon="5.6057">
        <ele>211.56</ele>
        <time>2019-05-23T15:03:06Z</time>
      </trkpt>
      <trkpt lat="47.01382" lon="5.6055">
        <ele>214.17</ele>
        <time>2019-05-23T15:03:21Z</time>
      </trkpt>
      <trkpt lat="47.01371" lon="5.60528">
        <ele>214.26</ele>
        <time>2019-05-23T15:03:36Z</time>
      </trkpt>
      <trkpt lat="47.01359" lon="5.60507">
        <ele>214.35</ele>
        <time>2019-05-23T15:03:51Z</time>
      </trkpt>
      <trkpt lat="47.01346" lon="5.60489">
        <ele>216.17</ele>
        <time>2019-05-23T15:04:04Z</time>
      </trkpt>
      <trkpt lat="47.01333" lon="5.60469">
        <ele>215.25</ele>
        <time>2019-05-23T15:04:19Z</time>
      </trkpt>
      <trkpt lat="47.01323" lon="5.60446">
        <ele>214.26</ele>
        <time>2019-05-23T15:04:33Z</time>
      </trkpt>
      <trkpt lat="47.0131" lon="5.60426">
        <ele>215.26</ele>
        <time>2019-05-23T15:04:48Z</time>
      </trkpt>
      <trkpt lat="47.01304" lon="5.604">
        <ele>214.25</ele>
        <time>2019-05-23T15:05:08Z</time>
      </trkpt>
      <trkpt lat="47.01294" lon="5.60376">
        <ele>212.26</ele>
        <time>2019-05-23T15:05:21Z</time>
      </trkpt>
      <trkpt lat="47.01285" lon="5.60353">
        <ele>211.28</ele>
        <time>2019-05-23T15:05:37Z</time>
      </trkpt>
      <trkpt lat="47.01275" lon="5.6033">
        <ele>211.98</ele>
        <time>2019-05-23T15:05:52Z</time>
      </trkpt>
      <trkpt lat="47.01265" lon="5.60306">
        <ele>213.25</ele>
        <time>2019-05-23T15:06:06Z</time>
      </trkpt>
      <trkpt lat="47.01258" lon="5.60281">
        <ele>214.23</ele>
        <time>2019-05-23T15:06:19Z</time>
      </trkpt>
      <trkpt lat="47.01248" lon="5.60257">
        <ele>213.55</ele>
        <time>2019-05-23T15:06:33Z</time>
      </trkpt>
      <trkpt lat="47.0124" lon="5.60233">
        <ele>212.47</ele>
        <time>2019-05-23T15:06:47Z</time>
      </trkpt>
      <trkpt lat="47.01236" lon="5.60208">
        <ele>214.16</ele>
        <time>2019-05-23T15:07:00Z</time>
      </trkpt>
      <trkpt lat="47.01227" lon="5.60185">
        <ele>213.26</ele>
        <time>2019-05-23T15:07:13Z</time>
      </trkpt>
      <trkpt lat="47.01219" lon="5.6016">
        <ele>212.26</ele>
        <time>2019-05-23T15:07:35Z</time>
      </trkpt>
      <trkpt lat="47.01214" lon="5.60133">
        <ele>212.26</ele>
        <time>2019-05-23T15:07:51Z</time>
      </trkpt>
      <trkpt lat="47.0121" lon="5.60106">
        <ele>212.26</ele>
        <time>2019-05-23T15:08:04Z</time>
      </trkpt>
      <trkpt lat="47.01204" lon="5.60079">
        <ele>212.17</ele>
        <time>2019-05-23T15:08:21Z</time>
      </trkpt>
      <trkpt lat="47.01198" lon="5.60055">
        <ele>212.26</ele>
        <time>2019-05-23T15:08:35Z</time>
      </trkpt>
      <trkpt lat="47.01192" lon="5.60029">
        <ele>211.35</ele>
        <time>2019-05-23T15:08:49Z</time>
      </trkpt>
      <trkpt lat="47.01192" lon="5.60002">
        <ele>210.55</ele>
        <time>2019-05-23T15:09:04Z</time>
      </trkpt>
      <trkpt lat="47.01185" lon="5.59977">
        <ele>211.19</ele>
        <time>2019-05-23T15:09:19Z</time>
      </trkpt>
      <trkpt lat="47.01179" lon="5.5995">
        <ele>211.26</ele>
        <time>2019-05-23T15:09:33Z</time>
      </trkpt>
      <trkpt lat="47.01172" lon="5.59925">
        <ele>212.23</ele>
        <time>2019-05-23T15:09:46Z</time>
      </trkpt>
      <trkpt lat="47.01166" lon="5.599">
        <ele>211.47</ele>
        <time>2019-05-23T15:09:59Z</time>
      </trkpt>
      <trkpt lat="47.01159" lon="5.59875">
        <ele>211.26</ele>
        <time>2019-05-23T15:10:13Z</time>
      </trkpt>
      <trkpt lat="47.01151" lon="5.5985">
        <ele>211.26</ele>
        <time>2019-05-23T15:10:27Z</time>
      </trkpt>
      <trkpt lat="47.01141" lon="5.59826">
        <ele>210.54</ele>
        <time>2019-05-23T15:10:42Z</time>
      </trkpt>
      <trkpt lat="47.01131" lon="5.59805">
        <ele>210.26</ele>
        <time>2019-05-23T15:10:55Z</time>
      </trkpt>
      <trkpt lat="47.01123" lon="5.59779">
        <ele>211.17</ele>
        <time>2019-05-23T15:11:09Z</time>
      </trkpt>
      <trkpt lat="47.01115" lon="5.59755">
        <ele>209.98</ele>
        <time>2019-05-23T15:11:23Z</time>
      </trkpt>
      <trkpt lat="47.01107" lon="5.59731">
        <ele>208.98</ele>
        <time>2019-05-23T15:13:42Z</time>
      </trkpt>
      <trkpt lat="47.01094" lon="5.59712">
        <ele>210.25</ele>
        <time>2019-05-23T15:14:03Z</time>
      </trkpt>
      <trkpt lat="47.01082" lon="5.5969">
        <ele>210.96</ele>
        <time>2019-05-23T15:14:21Z</time>
      </trkpt>
      <trkpt lat="47.01071" lon="5.59668">
        <ele>211.28</ele>
        <time>2019-05-23T15:14:37Z</time>
      </trkpt>
      <trkpt lat="47.01061" lon="5.59646">
        <ele>210.28</ele>
        <time>2019-05-23T15:14:53Z</time>
      </trkpt>
      <trkpt lat="47.0105" lon="5.59623">
        <ele>211.26</ele>
        <time>2019-05-23T15:15:11Z</time>
      </trkpt>
      <trkpt lat="47.01042" lon="5.59599">
        <ele>211.24</ele>
        <time>2019-05-23T15:15:29Z</time>
      </trkpt>
      <trkpt lat="47.01031" lon="5.59577">
        <ele>211.26</ele>
        <time>2019-05-23T15:15:47Z</time>
      </trkpt>
      <trkpt lat="47.01015" lon="5.59565">
        <ele>210.19</ele>
        <time>2019-05-23T15:16:16Z</time>
      </trkpt>
      <trkpt lat="47.01011" lon="5.59538">
        <ele>209.26</ele>
        <time>2019-05-23T15:16:37Z</time>
      </trkpt>
      <trkpt lat="47.01004" lon="5.59512">
        <ele>208.26</ele>
        <time>2019-05-23T15:17:04Z</time>
      </trkpt>
      <trkpt lat="47.01016" lon="5.59491">
        <ele>209.34</ele>
        <time>2019-05-23T15:17:28Z</time>
      </trkpt>
      <trkpt lat="47.01018" lon="5.59464">
        <ele>211.14</ele>
        <time>2019-05-23T15:18:05Z</time>
      </trkpt>
    </trkseg>
  </trk>
</gpx>